Observation data for Happy on 08/14/2019      Previous  Date  Next       Current Mesonet Observations  Soil Data  Daily Summary Page  Observations in Plain Language
KHA2 140500Z 10010KT 24/17 A3018 RMK A01 T02350170  RH  067%=      5-min Rain = 0
KHA2 140501Z 10009KT 24/17 A3018 RMK A01 T02350169  RH  067%=      5-min Rain = 0
KHA2 140502Z 10009KT 24/17 A3018 RMK A01 T02350169  RH  067%=      5-min Rain = 0
KHA2 140503Z 10010KT 23/17 A3018 RMK A01 T02340169  RH  067%=      5-min Rain = 0
KHA2 140504Z 10009KT 23/17 A3018 RMK A01 T02340169  RH  067%=      5-min Rain = 0
KHA2 140505Z 10009KT 23/17 A3018 RMK A01 T02340170  RH  067%=      5-min Rain = 0
KHA2 140506Z 10009KT 23/17 A3018 RMK A01 T02330169  RH  067%=      5-min Rain = 0
KHA2 140507Z 10009KT 23/17 A3018 RMK A01 T02330170  RH  067%=      5-min Rain = 0
KHA2 140508Z 10008KT 23/17 A3018 RMK A01 T02330170  RH  067%=      5-min Rain = 0
KHA2 140509Z 10009KT 23/17 A3019 RMK A01 T02330170  RH  067%=      5-min Rain = 0
KHA2 140510Z 10008KT 23/17 A3019 RMK A01 T02330170  RH  067%=      5-min Rain = 0
KHA2 140526Z 08008KT 23/17 A302 RMK A01 T02270167  RH  069%=      5-min Rain = 0
KHA2 140527Z 08008KT 23/17 A302 RMK A01 T02260167  RH  069%=      5-min Rain = 0
KHA2 140528Z 08009KT 23/17 A302 RMK A01 T02250166  RH  069%=      5-min Rain = 0
KHA2 140529Z 08009KT 22/17 A302 RMK A01 T02240166  RH  070%=      5-min Rain = 0
KHA2 140530Z 08009KT 22/17 A302 RMK A01 T02240167  RH  070%=      5-min Rain = 0
KHA2 140531Z 08010KT 22/17 A302 RMK A01 T02230167  RH  070%=      5-min Rain = 0
KHA2 140532Z 08010KT 22/17 A302 RMK A01 T02230168  RH  071%=      5-min Rain = 0
KHA2 140533Z 08009KT 22/17 A302 RMK A01 T02240168  RH  071%=      5-min Rain = 0
KHA2 140534Z 08010KT 22/17 A302 RMK A01 T02230168  RH  071%=      5-min Rain = 0
KHA2 140535Z 08010KT 22/17 A302 RMK A01 T02240169  RH  071%=      5-min Rain = 0
KHA2 140536Z 08010KT 22/17 A302 RMK A01 T02240170  RH  071%=      5-min Rain = 0
KHA2 140537Z 08011KT 23/17 A302 RMK A01 T02250171  RH  071%=      5-min Rain = 0
KHA2 140538Z 08011KT 23/17 A3021 RMK A01 T02260171  RH  071%=      5-min Rain = 0
KHA2 140539Z 08011KT 23/17 A3021 RMK A01 T02270172  RH  071%=      5-min Rain = 0
KHA2 140540Z 08011KT 23/17 A3021 RMK A01 T02280172  RH  071%=      5-min Rain = 0
KHA2 140541Z 08010KT 23/17 A3021 RMK A01 T02270172  RH  071%=      5-min Rain = 0
KHA2 140542Z 08011KT 23/17 A3021 RMK A01 T02280172  RH  071%=      5-min Rain = 0
KHA2 140543Z 08010KT 23/17 A3021 RMK A01 T02270171  RH  071%=      5-min Rain = 0
KHA2 140544Z 08010KT 23/17 A3021 RMK A01 T02270171  RH  071%=      5-min Rain = 0
KHA2 140545Z 08010KT 23/17 A3021 RMK A01 T02270171  RH  071%=      5-min Rain = 0
KHA2 140546Z 08009KT 23/17 A3021 RMK A01 T02260171  RH  071%=      5-min Rain = 0
KHA2 140547Z 08010KT 23/17 A3021 RMK A01 T02250170  RH  071%=      5-min Rain = 0
KHA2 140548Z 08010KT 22/17 A3021 RMK A01 T02240170  RH  071%=      5-min Rain = 0
KHA2 140549Z 08009KT 22/17 A3021 RMK A01 T02240170  RH  071%=      5-min Rain = 0
KHA2 140550Z 08009KT 22/17 A3021 RMK A01 T02230170  RH  072%=      5-min Rain = 0
KHA2 140551Z 08009KT 22/17 A3021 RMK A01 T02240170  RH  072%=      5-min Rain = 0
KHA2 140552Z 08009KT 22/17 A3021 RMK A01 T02230170  RH  072%=      5-min Rain = 0
KHA2 140553Z 08009KT 22/17 A3021 RMK A01 T02230170  RH  072%=      5-min Rain = 0
KHA2 140554Z 08009KT 22/17 A3021 RMK A01 T02230170  RH  072%=      5-min Rain = 0
KHA2 140555Z 08009KT 22/17 A3021 RMK A01 T02240170  RH  072%=      5-min Rain = 0
KHA2 140556Z 07009KT 22/17 A3022 RMK A01 T02230170  RH  072%=      5-min Rain = 0
KHA2 140557Z 06009KT 22/17 A3022 RMK A01 T02240170  RH  072%=      5-min Rain = 0
KHA2 140558Z 06009KT 22/17 A3022 RMK A01 T02230170  RH  072%=      5-min Rain = 0
KHA2 140559Z 06009KT 22/17 A3022 RMK A01 T02230170  RH  072%=      5-min Rain = 0
KHA2 140600Z 06008KT 22/17 A3022 RMK A01 T02220170  RH  072%=      5-min Rain = 0
KHA2 140601Z 06009KT 22/17 A3022 RMK A01 T02210171  RH  073%=      5-min Rain = 0
KHA2 140602Z 07009KT 22/17 A3022 RMK A01 T02210171  RH  073%=      5-min Rain = 0
KHA2 140603Z 07009KT 22/17 A3023 RMK A01 T02210171  RH  073%=      5-min Rain = 0
KHA2 140604Z 07010KT 22/17 A3023 RMK A01 T02220171  RH  073%=      5-min Rain = 0
KHA2 140605Z 07009KT 22/17 A3023 RMK A01 T02220171  RH  073%=      5-min Rain = 0
KHA2 140606Z 07009KT 22/17 A3023 RMK A01 T02230171  RH  073%=      5-min Rain = 0
KHA2 140607Z 07010KT 22/17 A3023 RMK A01 T02240172  RH  072%=      5-min Rain = 0
KHA2 140608Z 07010KT 22/17 A3023 RMK A01 T02240172  RH  072%=      5-min Rain = 0
KHA2 140609Z 07010KT 23/17 A3023 RMK A01 T02250171  RH  072%=      5-min Rain = 0
KHA2 140610Z 07010KT 23/17 A3022 RMK A01 T02250172  RH  072%=      5-min Rain = 0
KHA2 140611Z 07010KT 23/17 A3022 RMK A01 T02260172  RH  072%=      5-min Rain = 0
KHA2 140612Z 07011KT 23/17 A3022 RMK A01 T02260172  RH  072%=      5-min Rain = 0
KHA2 140613Z 07011KT 23/17 A3022 RMK A01 T02280173  RH  071%=      5-min Rain = 0
KHA2 140614Z 07012KT 23/17 A3022 RMK A01 T02280173  RH  071%=      5-min Rain = 0
KHA2 140615Z 07012KT 23/17 A3022 RMK A01 T02290173  RH  070%=      5-min Rain = 0
KHA2 140616Z 07012KT 23/17 A3022 RMK A01 T02300173  RH  070%=      5-min Rain = 0
KHA2 140617Z 08012KT 23/17 A3022 RMK A01 T02310172  RH  070%=      5-min Rain = 0
KHA2 140618Z 08011KT 23/17 A3022 RMK A01 T02310172  RH  069%=      5-min Rain = 0
KHA2 140619Z 08012KT 23/17 A3022 RMK A01 T02320172  RH  069%=      5-min Rain = 0
KHA2 140620Z 08012KT 23/17 A3022 RMK A01 T02320171  RH  068%=      5-min Rain = 0
KHA2 140621Z 08011KT 23/17 A3022 RMK A01 T02320170  RH  068%=      5-min Rain = 0
KHA2 140622Z 08012KT 23/17 A3022 RMK A01 T02320170  RH  068%=      5-min Rain = 0
KHA2 140623Z 08012KT 23/17 A3022 RMK A01 T02320170  RH  068%=      5-min Rain = 0
KHA2 140624Z 08013KT 23/17 A3022 RMK A01 T02320170  RH  068%=      5-min Rain = 0
KHA2 140625Z 08013KT 23/17 A3022 RMK A01 T02320169  RH  068%=      5-min Rain = 0
KHA2 140626Z 08012KT 23/17 A3022 RMK A01 T02320169  RH  068%=      5-min Rain = 0
KHA2 140627Z 08012KT 23/17 A3022 RMK A01 T02320169  RH  068%=      5-min Rain = 0
KHA2 140628Z 08011KT 23/17 A3022 RMK A01 T02320169  RH  068%=      5-min Rain = 0
KHA2 140629Z 08013KT 23/17 A3022 RMK A01 T02310169  RH  068%=      5-min Rain = 0
KHA2 140630Z 08012KT 23/17 A3022 RMK A01 T02310169  RH  068%=      5-min Rain = 0
KHA2 140631Z 08012KT 23/17 A3022 RMK A01 T02310169  RH  068%=      5-min Rain = 0
KHA2 140632Z 08011KT 23/17 A3022 RMK A01 T02310169  RH  068%=      5-min Rain = 0
KHA2 140633Z 08012KT 23/17 A3022 RMK A01 T02300168  RH  068%=      5-min Rain = 0
KHA2 140634Z 08012KT 23/17 A3022 RMK A01 T02300168  RH  068%=      5-min Rain = 0
KHA2 140635Z 08012KT 23/17 A3021 RMK A01 T02300168  RH  068%=      5-min Rain = 0
KHA2 140636Z 08011KT 23/17 A3021 RMK A01 T02310168  RH  068%=      5-min Rain = 0
KHA2 140637Z 08011KT 23/17 A3021 RMK A01 T02300168  RH  068%=      5-min Rain = 0
KHA2 140638Z 08010KT 23/17 A3021 RMK A01 T02300168  RH  068%=      5-min Rain = 0
KHA2 140639Z 08011KT 23/17 A3021 RMK A01 T02290168  RH  068%=      5-min Rain = 0
KHA2 140640Z 08010KT 23/17 A3021 RMK A01 T02290168  RH  068%=      5-min Rain = 0
KHA2 140641Z 08010KT 23/17 A3021 RMK A01 T02280167  RH  069%=      5-min Rain = 0
KHA2 140642Z 09009KT 23/17 A3021 RMK A01 T02280167  RH  069%=      5-min Rain = 0
KHA2 140643Z 09009KT 23/17 A3021 RMK A01 T02280167  RH  069%=      5-min Rain = 0
KHA2 140644Z 09009KT 23/17 A3021 RMK A01 T02270167  RH  069%=      5-min Rain = 0
KHA2 140645Z 09009KT 23/17 A3021 RMK A01 T02260167  RH  069%=      5-min Rain = 0
KHA2 140646Z 09009KT 23/17 A3021 RMK A01 T02260167  RH  069%=      5-min Rain = 0
KHA2 140647Z 09009KT 23/17 A302 RMK A01 T02260167  RH  069%=      5-min Rain = 0
KHA2 140648Z 09009KT 23/17 A3021 RMK A01 T02260167  RH  069%=      5-min Rain = 0
KHA2 140649Z 09009KT 23/17 A3021 RMK A01 T02260167  RH  069%=      5-min Rain = 0
KHA2 140650Z 09009KT 23/17 A3021 RMK A01 T02260167  RH  069%=      5-min Rain = 0
KHA2 140651Z 09008KT 23/17 A3021 RMK A01 T02260167  RH  069%=      5-min Rain = 0
KHA2 140652Z 09008KT 23/17 A3021 RMK A01 T02250167  RH  069%=      5-min Rain = 0
KHA2 140653Z 09007KT 23/17 A3021 RMK A01 T02250167  RH  069%=      5-min Rain = 0
KHA2 140654Z 08007KT 23/17 A3021 RMK A01 T02250167  RH  069%=      5-min Rain = 0
KHA2 140655Z 08007KT 23/17 A3021 RMK A01 T02250166  RH  070%=      5-min Rain = 0
KHA2 140656Z 08006KT 22/17 A3021 RMK A01 T02240166  RH  070%=      5-min Rain = 0
KHA2 140657Z 08007KT 22/17 A3021 RMK A01 T02240166  RH  070%=      5-min Rain = 0
KHA2 140658Z 08006KT 22/17 A3021 RMK A01 T02240166  RH  070%=      5-min Rain = 0
KHA2 140659Z 08006KT 22/17 A3021 RMK A01 T02240166  RH  070%=      5-min Rain = 0
KHA2 140700Z 07006KT 22/17 A3021 RMK A01 T02230166  RH  070%=      5-min Rain = 0
KHA2 140701Z 07006KT 22/17 A3021 RMK A01 T02230166  RH  070%=      5-min Rain = 0
KHA2 140702Z 08006KT 22/17 A3021 RMK A01 T02220166  RH  070%=      5-min Rain = 0
KHA2 140703Z 08007KT 22/17 A3021 RMK A01 T02210165  RH  071%=      5-min Rain = 0
KHA2 140704Z 07007KT 22/17 A3021 RMK A01 T02200166  RH  071%=      5-min Rain = 0
KHA2 140705Z 08007KT 22/17 A3021 RMK A01 T02190166  RH  071%=      5-min Rain = 0
KHA2 140706Z 08006KT 22/17 A3021 RMK A01 T02190166  RH  072%=      5-min Rain = 0
KHA2 140707Z 08006KT 22/17 A3021 RMK A01 T02190166  RH  072%=      5-min Rain = 0
KHA2 140708Z 08005KT 22/17 A3021 RMK A01 T02180165  RH  072%=      5-min Rain = 0
KHA2 140709Z 08005KT 22/17 A3021 RMK A01 T02170165  RH  072%=      5-min Rain = 0
KHA2 140710Z 08005KT 22/17 A3021 RMK A01 T02170165  RH  072%=      5-min Rain = 0
KHA2 140711Z 08005KT 22/17 A3021 RMK A01 T02170165  RH  072%=      5-min Rain = 0
KHA2 140712Z 09005KT 22/17 A3021 RMK A01 T02160165  RH  072%=      5-min Rain = 0
KHA2 140713Z 09005KT 22/17 A3021 RMK A01 T02160165  RH  073%=      5-min Rain = 0
KHA2 140714Z 09004KT 22/16 A3021 RMK A01 T02150164  RH  073%=      5-min Rain = 0
KHA2 140715Z 09004KT 22/16 A3021 RMK A01 T02150164  RH  073%=      5-min Rain = 0
KHA2 140716Z 09004KT 22/16 A3021 RMK A01 T02150164  RH  073%=      5-min Rain = 0
KHA2 140717Z 09004KT 21/16 A3021 RMK A01 T02140164  RH  073%=      5-min Rain = 0
KHA2 140718Z 09004KT 22/16 A3021 RMK A01 T02150164  RH  073%=      5-min Rain = 0
KHA2 140719Z 09004KT 21/16 A3021 RMK A01 T02140164  RH  073%=      5-min Rain = 0
KHA2 140720Z 09003KT 21/16 A3021 RMK A01 T02140163  RH  073%=      5-min Rain = 0
KHA2 140721Z 08003KT 21/16 A3021 RMK A01 T02140164  RH  073%=      5-min Rain = 0
KHA2 140722Z 08003KT 21/16 A3021 RMK A01 T02130163  RH  073%=      5-min Rain = 0
KHA2 140723Z 08003KT 21/16 A3021 RMK A01 T02130163  RH  073%=      5-min Rain = 0
KHA2 140724Z 07003KT 21/16 A3021 RMK A01 T02130164  RH  073%=      5-min Rain = 0
KHA2 140725Z 07003KT 21/16 A3021 RMK A01 T02130164  RH  073%=      5-min Rain = 0
KHA2 140726Z 07003KT 21/16 A3021 RMK A01 T02130164  RH  073%=      5-min Rain = 0
KHA2 140727Z 07003KT 21/16 A3021 RMK A01 T02130164  RH  073%=      5-min Rain = 0
KHA2 140728Z 08003KT 21/17 A3021 RMK A01 T02130165  RH  074%=      5-min Rain = 0
KHA2 140729Z 08003KT 21/16 A3021 RMK A01 T02130164  RH  073%=      5-min Rain = 0
KHA2 140730Z 08004KT 21/16 A3021 RMK A01 T02130163  RH  073%=      5-min Rain = 0
KHA2 140731Z 08005KT 21/16 A3021 RMK A01 T02140162  RH  072%=      5-min Rain = 0
KHA2 140732Z 07006KT 21/16 A3021 RMK A01 T02130163  RH  073%=      5-min Rain = 0
KHA2 140733Z 07009KT 21/16 A3022 RMK A01 T02110162  RH  073%=      5-min Rain = 0
KHA2 140734Z 08010KT 21/16 A3022 RMK A01 T02090163  RH  075%=      5-min Rain = 0
KHA2 140735Z 06011KT 21/16 A3022 RMK A01 T02090164  RH  075%=      5-min Rain = 0
KHA2 140736Z 06012KT 21/16 A3022 RMK A01 T02090164  RH  075%=      5-min Rain = 0
KHA2 140737Z 06013KT 21/16 A3021 RMK A01 T02090164  RH  075%=      5-min Rain = 0
KHA2 140738Z 06012KT 21/17 A3021 RMK A01 T02090166  RH  076%=      5-min Rain = 0
KHA2 140739Z 06013KT 21/17 A3021 RMK A01 T02100167  RH  077%=      5-min Rain = 0
KHA2 140740Z 06011KT 21/17 A3021 RMK A01 T02100168  RH  077%=      5-min Rain = 0
KHA2 140741Z 06012KT 21/17 A3021 RMK A01 T02110169  RH  077%=      5-min Rain = 0
KHA2 140742Z 06013KT 21/17 A3021 RMK A01 T02110169  RH  077%=      5-min Rain = 0
KHA2 140743Z 06013KT 21/17 A3021 RMK A01 T02120170  RH  077%=      5-min Rain = 0
KHA2 140744Z 06015KT 21/17 A3021 RMK A01 T02120170  RH  077%=      5-min Rain = 0
KHA2 140745Z 06017KT 21/17 A3021 RMK A01 T02130170  RH  076%=      5-min Rain = 0
KHA2 140746Z 06017KT 21/17 A3021 RMK A01 T02130169  RH  076%=      5-min Rain = 0
KHA2 140747Z 06014KT 21/17 A3021 RMK A01 T02130170  RH  076%=      5-min Rain = 0
KHA2 140748Z 07015KT 21/17 A3021 RMK A01 T02140170  RH  076%=      5-min Rain = 0
KHA2 140749Z 07014KT 21/17 A3021 RMK A01 T02130169  RH  076%=      5-min Rain = 0
KHA2 140750Z 07014G21KT 21/17 A3021 RMK A01 T02140169  RH  076%=      5-min Rain = 0
KHA2 140751Z 07019KT 21/17 A3021 RMK A01 T02130167  RH  075%=      5-min Rain = 0
KHA2 140752Z 07020KT 21/17 A3021 RMK A01 T02140165  RH  074%=      5-min Rain = 0
KHA2 140753Z 07018KT 21/16 A3021 RMK A01 T02140164  RH  073%=      5-min Rain = 0
KHA2 140754Z 07016KT 21/16 A3021 RMK A01 T02140164  RH  073%=      5-min Rain = 0
KHA2 140755Z 07018KT 21/16 A3022 RMK A01 T02130164  RH  073%=      5-min Rain = 0
KHA2 140756Z 06016KT 21/16 A3022 RMK A01 T02130164  RH  074%=      5-min Rain = 0
KHA2 140757Z 07016KT 21/16 A3022 RMK A01 T02120164  RH  074%=      5-min Rain = 0
KHA2 140758Z 06014KT 21/16 A3022 RMK A01 T02120163  RH  074%=      5-min Rain = 0
KHA2 140759Z 06014KT 21/16 A3022 RMK A01 T02110162  RH  073%=      5-min Rain = 0
KHA2 140800Z 06015KT 21/16 A3022 RMK A01 T02110161  RH  073%=      5-min Rain = 0
KHA2 140801Z 06012KT 21/16 A3022 RMK A01 T02100160  RH  073%=      5-min Rain = 0
KHA2 140802Z 06014KT 21/16 A3022 RMK A01 T02090160  RH  073%=      5-min Rain = 0
KHA2 140803Z 06014KT 21/16 A3022 RMK A01 T02090159  RH  073%=      5-min Rain = 0
KHA2 140804Z 06015KT 21/16 A3022 RMK A01 T02080158  RH  073%=      5-min Rain = 0
KHA2 140805Z 06014KT 21/16 A3022 RMK A01 T02070157  RH  073%=      5-min Rain = 0
KHA2 140806Z 06014KT 21/16 A3022 RMK A01 T02070156  RH  073%=      5-min Rain = 0
KHA2 140807Z 06013KT 21/16 A3022 RMK A01 T02060156  RH  073%=      5-min Rain = 0
KHA2 140808Z 07012KT 21/16 A3022 RMK A01 T02060156  RH  073%=      5-min Rain = 0
KHA2 140809Z 06013KT 21/16 A3022 RMK A01 T02050155  RH  073%=      5-min Rain = 0
KHA2 140810Z 06013KT 20/15 A3022 RMK A01 T02040154  RH  073%=      5-min Rain = 0
KHA2 140811Z 06014KT 20/15 A3022 RMK A01 T02040154  RH  073%=      5-min Rain = 0
KHA2 140812Z 06012KT 20/15 A3022 RMK A01 T02040153  RH  072%=      5-min Rain = 0
KHA2 140813Z 06014KT 20/15 A3022 RMK A01 T02030151  RH  072%=      5-min Rain = 0
KHA2 140814Z 06013KT 20/15 A3022 RMK A01 T02030150  RH  072%=      5-min Rain = 0
KHA2 140815Z 06014KT 20/15 A3022 RMK A01 T02030150  RH  072%=      5-min Rain = 0
KHA2 140816Z 06013KT 20/15 A3022 RMK A01 T02020149  RH  071%=      5-min Rain = 0
KHA2 140817Z 06014KT 20/15 A3022 RMK A01 T02020148  RH  071%=      5-min Rain = 0
KHA2 140818Z 05013KT 20/15 A3023 RMK A01 T02020148  RH  071%=      5-min Rain = 0
KHA2 140819Z 05014KT 20/15 A3023 RMK A01 T02020147  RH  071%=      5-min Rain = 0
KHA2 140820Z 05013KT 20/15 A3023 RMK A01 T02010147  RH  071%=      5-min Rain = 0
KHA2 140821Z 05012KT 20/15 A3023 RMK A01 T02020147  RH  071%=      5-min Rain = 0
KHA2 140822Z 05012KT 20/15 A3022 RMK A01 T02010146  RH  071%=      5-min Rain = 0
KHA2 140823Z 05012KT 20/15 A3022 RMK A01 T02010146  RH  071%=      5-min Rain = 0
KHA2 140824Z 05012KT 20/15 A3022 RMK A01 T02010146  RH  071%=      5-min Rain = 0
KHA2 140825Z 06011KT 20/15 A3022 RMK A01 T02000145  RH  071%=      5-min Rain = 0
KHA2 140826Z 06013KT 20/14 A3022 RMK A01 T02000144  RH  070%=      5-min Rain = 0
KHA2 140827Z 06012KT 20/14 A3022 RMK A01 T02000144  RH  070%=      5-min Rain = 0
KHA2 140828Z 06012KT 20/14 A3022 RMK A01 T01990143  RH  070%=      5-min Rain = 0
KHA2 140829Z 06011KT 20/14 A3022 RMK A01 T01980143  RH  071%=      5-min Rain = 0
KHA2 140830Z 06011KT 20/14 A3021 RMK A01 T01980143  RH  071%=      5-min Rain = 0
KHA2 140831Z 06014KT 20/14 A3021 RMK A01 T01970143  RH  071%=      5-min Rain = 0
KHA2 140832Z 07012KT 20/14 A3021 RMK A01 T01970142  RH  070%=      5-min Rain = 0
KHA2 140833Z 07012KT 20/14 A3021 RMK A01 T01970142  RH  071%=      5-min Rain = 0
KHA2 140834Z 07011KT 20/14 A3021 RMK A01 T01960142  RH  071%=      5-min Rain = 0
KHA2 140835Z 07011KT 20/14 A3021 RMK A01 T01960142  RH  071%=      5-min Rain = 0
KHA2 140836Z 07011KT 20/14 A3021 RMK A01 T01960142  RH  071%=      5-min Rain = 0
KHA2 140837Z 07011KT 20/14 A3021 RMK A01 T01950142  RH  071%=      5-min Rain = 0
KHA2 140838Z 07011KT 20/14 A3021 RMK A01 T01950142  RH  071%=      5-min Rain = 0
KHA2 140839Z 06010KT 19/14 A3021 RMK A01 T01940142  RH  071%=      5-min Rain = 0
KHA2 140840Z 06010KT 19/14 A3021 RMK A01 T01940141  RH  071%=      5-min Rain = 0
KHA2 140841Z 06010KT 19/14 A3021 RMK A01 T01940141  RH  072%=      5-min Rain = 0
KHA2 140842Z 06009KT 19/14 A3021 RMK A01 T01930141  RH  072%=      5-min Rain = 0
KHA2 140843Z 06010KT 19/14 A3021 RMK A01 T01930141  RH  072%=      5-min Rain = 0
KHA2 140844Z 06010KT 19/14 A3021 RMK A01 T01920141  RH  072%=      5-min Rain = 0
KHA2 140845Z 06010KT 19/14 A3021 RMK A01 T01920140  RH  072%=      5-min Rain = 0
KHA2 140846Z 06010KT 19/14 A3021 RMK A01 T01920140  RH  072%=      5-min Rain = 0
KHA2 140847Z 06009KT 19/14 A3021 RMK A01 T01920140  RH  072%=      5-min Rain = 0
KHA2 140848Z 06009KT 19/14 A3021 RMK A01 T01910140  RH  072%=      5-min Rain = 0
KHA2 140849Z 06009KT 19/14 A3021 RMK A01 T01910140  RH  072%=      5-min Rain = 0
KHA2 140850Z 06009KT 19/14 A3021 RMK A01 T01900139  RH  072%=      5-min Rain = 0
KHA2 140851Z 06009KT 19/14 A3022 RMK A01 T01900140  RH  072%=      5-min Rain = 0
KHA2 140852Z 05009KT 19/14 A3022 RMK A01 T01900139  RH  072%=      5-min Rain = 0
KHA2 140853Z 05009KT 19/14 A3022 RMK A01 T01900139  RH  072%=      5-min Rain = 0
KHA2 140854Z 05009KT 19/14 A3022 RMK A01 T01900139  RH  072%=      5-min Rain = 0
KHA2 140855Z 05009KT 19/14 A3022 RMK A01 T01900139  RH  072%=      5-min Rain = 0
KHA2 140856Z 05009KT 19/14 A3022 RMK A01 T01900139  RH  073%=      5-min Rain = 0
KHA2 140857Z 04007KT 19/14 A3022 RMK A01 T01890139  RH  073%=      5-min Rain = 0
KHA2 140858Z 04008KT 19/14 A3022 RMK A01 T01890140  RH  073%=      5-min Rain = 0
KHA2 140859Z 04008KT 19/14 A3022 RMK A01 T01890139  RH  073%=      5-min Rain = 0
KHA2 140900Z 03008KT 19/14 A3023 RMK A01 T01890138  RH  072%=      5-min Rain = 0
KHA2 140901Z 03009KT 19/14 A3023 RMK A01 T01900138  RH  072%=      5-min Rain = 0
KHA2 140902Z 03008KT 19/14 A3023 RMK A01 T01900139  RH  072%=      5-min Rain = 0
KHA2 140903Z 03008KT 19/14 A3023 RMK A01 T01900139  RH  072%=      5-min Rain = 0
KHA2 140904Z 03008KT 19/14 A3023 RMK A01 T01900139  RH  072%=      5-min Rain = 0
KHA2 140905Z 03007KT 19/14 A3023 RMK A01 T01900139  RH  072%=      5-min Rain = 0
KHA2 140906Z 03008KT 19/14 A3023 RMK A01 T01900139  RH  072%=      5-min Rain = 0
KHA2 140907Z 03008KT 19/14 A3023 RMK A01 T01900138  RH  072%=      5-min Rain = 0
KHA2 140908Z 03008KT 19/14 A3023 RMK A01 T01900138  RH  072%=      5-min Rain = 0
KHA2 140909Z 03008KT 19/14 A3024 RMK A01 T01900138  RH  072%=      5-min Rain = 0
KHA2 140910Z 03008KT 19/14 A3024 RMK A01 T01900137  RH  072%=      5-min Rain = 0
KHA2 140911Z 02007KT 19/14 A3024 RMK A01 T01900137  RH  072%=      5-min Rain = 0
KHA2 140912Z 02006KT 19/14 A3024 RMK A01 T01900138  RH  072%=      5-min Rain = 0
KHA2 140913Z 01006KT 19/14 A3024 RMK A01 T01900138  RH  072%=      5-min Rain = 0
KHA2 140914Z 01006KT 19/14 A3024 RMK A01 T01890136  RH  071%=      5-min Rain = 0
KHA2 140915Z 01005KT 19/14 A3024 RMK A01 T01880136  RH  071%=      5-min Rain = 0
KHA2 140916Z 01005KT 19/14 A3024 RMK A01 T01880135  RH  071%=      5-min Rain = 0
KHA2 140917Z 01005KT 19/13 A3024 RMK A01 T01870134  RH  071%=      5-min Rain = 0
KHA2 140918Z 01005KT 19/13 A3024 RMK A01 T01870134  RH  071%=      5-min Rain = 0
KHA2 140919Z 00005KT 19/13 A3024 RMK A01 T01870133  RH  071%=      5-min Rain = 0
KHA2 140920Z 36005KT 19/13 A3024 RMK A01 T01860132  RH  071%=      5-min Rain = 0
KHA2 140921Z 36005KT 19/13 A3024 RMK A01 T01860132  RH  071%=      5-min Rain = 0
KHA2 140922Z 36005KT 19/13 A3024 RMK A01 T01860131  RH  070%=      5-min Rain = 0
KHA2 140923Z 00006KT 19/13 A3024 RMK A01 T01850131  RH  070%=      5-min Rain = 0
KHA2 140924Z 01007KT 19/13 A3024 RMK A01 T01850131  RH  071%=      5-min Rain = 0
KHA2 140925Z 01008KT 19/13 A3024 RMK A01 T01850132  RH  071%=      5-min Rain = 0
KHA2 140926Z 01008KT 19/13 A3024 RMK A01 T01860131  RH  071%=      5-min Rain = 0
KHA2 140927Z 02008KT 19/13 A3024 RMK A01 T01860131  RH  070%=      5-min Rain = 0
KHA2 140928Z 02010KT 19/13 A3024 RMK A01 T01870131  RH  070%=      5-min Rain = 0
KHA2 140929Z 02010KT 19/13 A3025 RMK A01 T01870131  RH  070%=      5-min Rain = 0
KHA2 140930Z 02010KT 19/13 A3025 RMK A01 T01870130  RH  070%=      5-min Rain = 0
KHA2 140931Z 02010KT 19/13 A3025 RMK A01 T01870130  RH  070%=      5-min Rain = 0
KHA2 140932Z 02011KT 19/13 A3025 RMK A01 T01870130  RH  070%=      5-min Rain = 0
KHA2 140933Z 02012KT 19/13 A3024 RMK A01 T01870130  RH  070%=      5-min Rain = 0
KHA2 140934Z 02011KT 19/13 A3024 RMK A01 T01870130  RH  069%=      5-min Rain = 0
KHA2 140935Z 02012KT 19/13 A3024 RMK A01 T01870130  RH  070%=      5-min Rain = 0
KHA2 140936Z 02011KT 19/13 A3025 RMK A01 T01870130  RH  069%=      5-min Rain = 0
KHA2 140937Z 02012KT 19/13 A3025 RMK A01 T01870130  RH  070%=      5-min Rain = 0
KHA2 140938Z 02011KT 19/13 A3025 RMK A01 T01870131  RH  070%=      5-min Rain = 0
KHA2 140939Z 02011KT 19/13 A3025 RMK A01 T01870131  RH  070%=      5-min Rain = 0
KHA2 140940Z 02010KT 19/13 A3025 RMK A01 T01880132  RH  070%=      5-min Rain = 0
KHA2 140941Z 02009KT 19/13 A3025 RMK A01 T01880132  RH  070%=      5-min Rain = 0
KHA2 140942Z 02009KT 19/13 A3025 RMK A01 T01880133  RH  070%=      5-min Rain = 0
KHA2 140943Z 02009KT 19/13 A3025 RMK A01 T01870133  RH  071%=      5-min Rain = 0
KHA2 140944Z 02009KT 19/13 A3025 RMK A01 T01870132  RH  071%=      5-min Rain = 0
KHA2 140945Z 02009KT 19/13 A3025 RMK A01 T01860132  RH  071%=      5-min Rain = 0
KHA2 140946Z 02009KT 19/13 A3025 RMK A01 T01860132  RH  071%=      5-min Rain = 0
KHA2 140947Z 02009KT 19/13 A3025 RMK A01 T01860131  RH  070%=      5-min Rain = 0
KHA2 140948Z 02009KT 19/13 A3025 RMK A01 T01860131  RH  070%=      5-min Rain = 0
KHA2 140949Z 02008KT 19/13 A3025 RMK A01 T01860130  RH  070%=      5-min Rain = 0
KHA2 140950Z 02008KT 19/13 A3025 RMK A01 T01860130  RH  070%=      5-min Rain = 0
KHA2 140951Z 02009KT 19/13 A3025 RMK A01 T01860130  RH  070%=      5-min Rain = 0
KHA2 140952Z 02009KT 19/13 A3025 RMK A01 T01860129  RH  070%=      5-min Rain = 0
KHA2 140953Z 02008KT 19/13 A3025 RMK A01 T01860129  RH  069%=      5-min Rain = 0
KHA2 140954Z 02008KT 19/13 A3025 RMK A01 T01860129  RH  069%=      5-min Rain = 0
KHA2 140955Z 02008KT 19/13 A3025 RMK A01 T01860128  RH  069%=      5-min Rain = 0
KHA2 140956Z 02008KT 19/13 A3025 RMK A01 T01860128  RH  069%=      5-min Rain = 0
KHA2 140957Z 02008KT 19/13 A3025 RMK A01 T01860129  RH  069%=      5-min Rain = 0
KHA2 140958Z 02008KT 19/13 A3025 RMK A01 T01860129  RH  069%=      5-min Rain = 0
KHA2 140959Z 03007KT 19/13 A3025 RMK A01 T01850129  RH  070%=      5-min Rain = 0
KHA2 141000Z 03007KT 19/13 A3024 RMK A01 T01850129  RH  070%=      5-min Rain = 0
KHA2 141001Z 03007KT 19/13 A3024 RMK A01 T01850128  RH  069%=      5-min Rain = 0
KHA2 141002Z 02007KT 19/13 A3024 RMK A01 T01850128  RH  069%=      5-min Rain = 0
KHA2 141003Z 03007KT 19/13 A3024 RMK A01 T01850128  RH  069%=      5-min Rain = 0
KHA2 141004Z 02006KT 19/13 A3024 RMK A01 T01850128  RH  069%=      5-min Rain = 0
KHA2 141005Z 02007KT 19/13 A3024 RMK A01 T01850128  RH  069%=      5-min Rain = 0
KHA2 141006Z 01007KT 19/13 A3025 RMK A01 T01850127  RH  069%=      5-min Rain = 0
KHA2 141007Z 02008KT 19/13 A3025 RMK A01 T01850126  RH  069%=      5-min Rain = 0
KHA2 141008Z 01008KT 18/13 A3025 RMK A01 T01840125  RH  069%=      5-min Rain = 0
KHA2 141009Z 01008KT 18/13 A3025 RMK A01 T01840125  RH  068%=      5-min Rain = 0
KHA2 141010Z 01009KT 19/13 A3025 RMK A01 T01850125  RH  068%=      5-min Rain = 0
KHA2 141011Z 02009KT 19/13 A3025 RMK A01 T01850125  RH  068%=      5-min Rain = 0
KHA2 141012Z 01008KT 19/13 A3025 RMK A01 T01860125  RH  068%=      5-min Rain = 0
KHA2 141013Z 02010KT 19/13 A3025 RMK A01 T01870126  RH  068%=      5-min Rain = 0
KHA2 141014Z 03008KT 19/13 A3025 RMK A01 T01880126  RH  067%=      5-min Rain = 0
KHA2 141015Z 03008KT 19/13 A3025 RMK A01 T01880126  RH  067%=      5-min Rain = 0
KHA2 141016Z 03008KT 19/13 A3025 RMK A01 T01890126  RH  067%=      5-min Rain = 0
KHA2 141017Z 03008KT 19/13 A3025 RMK A01 T01890127  RH  067%=      5-min Rain = 0
KHA2 141018Z 03009KT 19/13 A3025 RMK A01 T01900126  RH  067%=      5-min Rain = 0
KHA2 141019Z 03010KT 19/13 A3025 RMK A01 T01900126  RH  066%=      5-min Rain = 0
KHA2 141020Z 03009KT 19/13 A3025 RMK A01 T01910127  RH  066%=      5-min Rain = 0
KHA2 141021Z 03009KT 19/13 A3025 RMK A01 T01910126  RH  066%=      5-min Rain = 0
KHA2 141022Z 02010KT 19/13 A3025 RMK A01 T01920126  RH  066%=      5-min Rain = 0
KHA2 141023Z 02009KT 19/13 A3026 RMK A01 T01920126  RH  066%=      5-min Rain = 0
KHA2 141024Z 02010KT 19/13 A3026 RMK A01 T01920126  RH  065%=      5-min Rain = 0
KHA2 141025Z 02009KT 19/13 A3026 RMK A01 T01920126  RH  065%=      5-min Rain = 0
KHA2 141026Z 02010KT 19/13 A3026 RMK A01 T01930126  RH  065%=      5-min Rain = 0
KHA2 141027Z 02011KT 19/13 A3026 RMK A01 T01930125  RH  065%=      5-min Rain = 0
KHA2 141028Z 02010KT 19/13 A3026 RMK A01 T01930125  RH  065%=      5-min Rain = 0
KHA2 141029Z 02010KT 19/13 A3026 RMK A01 T01930126  RH  065%=      5-min Rain = 0
KHA2 141030Z 03010KT 19/13 A3026 RMK A01 T01930126  RH  065%=      5-min Rain = 0
KHA2 141031Z 02011KT 19/13 A3026 RMK A01 T01930125  RH  065%=      5-min Rain = 0
KHA2 141032Z 02010KT 19/13 A3026 RMK A01 T01930125  RH  065%=      5-min Rain = 0
KHA2 141033Z 02009KT 19/13 A3026 RMK A01 T01940125  RH  065%=      5-min Rain = 0
KHA2 141034Z 03009KT 19/13 A3026 RMK A01 T01940125  RH  065%=      5-min Rain = 0
KHA2 141035Z 02010KT 19/13 A3025 RMK A01 T01930125  RH  065%=      5-min Rain = 0
KHA2 141036Z 02009KT 19/13 A3025 RMK A01 T01940125  RH  065%=      5-min Rain = 0
KHA2 141037Z 03009KT 19/13 A3025 RMK A01 T01930125  RH  065%=      5-min Rain = 0
KHA2 141038Z 03010KT 19/13 A3025 RMK A01 T01930125  RH  065%=      5-min Rain = 0
KHA2 141039Z 03009KT 19/13 A3026 RMK A01 T01930125  RH  065%=      5-min Rain = 0
KHA2 141040Z 03010KT 19/13 A3026 RMK A01 T01940125  RH  065%=      5-min Rain = 0
KHA2 141041Z 03010KT 19/13 A3026 RMK A01 T01930125  RH  065%=      5-min Rain = 0
KHA2 141042Z 03011KT 19/13 A3026 RMK A01 T01930125  RH  065%=      5-min Rain = 0
KHA2 141043Z 03011KT 19/13 A3026 RMK A01 T01930126  RH  065%=      5-min Rain = 0
KHA2 141044Z 03011KT 19/13 A3026 RMK A01 T01930125  RH  065%=      5-min Rain = 0
KHA2 141045Z 03012KT 19/13 A3026 RMK A01 T01940126  RH  065%=      5-min Rain = 0
KHA2 141046Z 03012KT 19/13 A3025 RMK A01 T01940126  RH  065%=      5-min Rain = 0
KHA2 141047Z 03012KT 19/13 A3025 RMK A01 T01940125  RH  065%=      5-min Rain = 0
KHA2 141048Z 03012KT 19/13 A3025 RMK A01 T01940126  RH  065%=      5-min Rain = 0
KHA2 141049Z 03011KT 19/13 A3025 RMK A01 T01940126  RH  065%=      5-min Rain = 0
KHA2 141050Z 03011KT 19/13 A3025 RMK A01 T01940125  RH  065%=      5-min Rain = 0
KHA2 141051Z 03011KT 19/13 A3025 RMK A01 T01940126  RH  065%=      5-min Rain = 0
KHA2 141052Z 03012KT 19/13 A3025 RMK A01 T01940126  RH  065%=      5-min Rain = 0
KHA2 141053Z 03011KT 19/13 A3025 RMK A01 T01940126  RH  065%=      5-min Rain = 0
KHA2 141054Z 03011KT 19/13 A3025 RMK A01 T01940126  RH  065%=      5-min Rain = 0
KHA2 141055Z 03012KT 19/13 A3026 RMK A01 T01940126  RH  065%=      5-min Rain = 0
KHA2 141056Z 03012KT 19/13 A3026 RMK A01 T01940126  RH  065%=      5-min Rain = 0
KHA2 141057Z 02011KT 19/13 A3026 RMK A01 T01940126  RH  065%=      5-min Rain = 0
KHA2 141058Z 02011KT 19/13 A3026 RMK A01 T01940125  RH  065%=      5-min Rain = 0
KHA2 141059Z 02011KT 19/13 A3026 RMK A01 T01940126  RH  065%=      5-min Rain = 0
KHA2 141100Z 03011KT 19/13 A3026 RMK A01 T01940126  RH  064%=      5-min Rain = 0
KHA2 141101Z 02011KT 20/13 A3025 RMK A01 T01950126  RH  065%=      5-min Rain = 0
KHA2 141102Z 02011KT 19/13 A3025 RMK A01 T01940126  RH  064%=      5-min Rain = 0
KHA2 141103Z 02011KT 19/13 A3025 RMK A01 T01940125  RH  064%=      5-min Rain = 0
KHA2 141104Z 02011KT 19/13 A3025 RMK A01 T01940126  RH  064%=      5-min Rain = 0
KHA2 141105Z 02011KT 19/13 A3025 RMK A01 T01940126  RH  064%=      5-min Rain = 0
KHA2 141106Z 02010KT 19/13 A3025 RMK A01 T01940126  RH  065%=      5-min Rain = 0
KHA2 141107Z 02013KT 19/13 A3025 RMK A01 T01940125  RH  065%=      5-min Rain = 0
KHA2 141108Z 02012KT 19/13 A3026 RMK A01 T01930125  RH  065%=      5-min Rain = 0
KHA2 141109Z 01013KT 19/13 A3026 RMK A01 T01930125  RH  065%=      5-min Rain = 0
KHA2 141110Z 02013KT 19/13 A3026 RMK A01 T01930127  RH  065%=      5-min Rain = 0
KHA2 141111Z 01013KT 19/13 A3026 RMK A01 T01910128  RH  067%=      5-min Rain = 0
KHA2 141112Z 02012KT 19/13 A3026 RMK A01 T01890130  RH  068%=      5-min Rain = 0.01
KHA2 141113Z 02011KT 19/13 A3025 RMK A01 T01870131  RH  070%=      5-min Rain = 0
KHA2 141114Z 02011KT 19/13 A3025 RMK A01 T01850133  RH  072%=      5-min Rain = 0
KHA2 141115Z 02012KT 18/13 A3026 RMK A01 T01840132  RH  072%=      5-min Rain = 0
KHA2 141116Z 02016KT 18/13 A3026 RMK A01 T01840132  RH  072%=      5-min Rain = 0
KHA2 141117Z 01015KT 18/13 A3026 RMK A01 T01840132  RH  072%=      5-min Rain = 0
KHA2 141118Z 01014KT 18/13 A3026 RMK A01 T01830133  RH  072%=      5-min Rain = 0
KHA2 141119Z 01014KT 18/13 A3026 RMK A01 T01820132  RH  072%=      5-min Rain = 0
KHA2 141120Z 01014KT 18/13 A3026 RMK A01 T01810132  RH  073%=      5-min Rain = 0
KHA2 141121Z 01015KT 18/13 A3026 RMK A01 T01810132  RH  073%=      5-min Rain = 0
KHA2 141122Z 01018KT 18/13 A3027 RMK A01 T01810132  RH  073%=      5-min Rain = 0
KHA2 141123Z 01014G20KT 18/13 A3027 RMK A01 T01810132  RH  073%=      5-min Rain = 0
KHA2 141124Z 01012KT 18/13 A3026 RMK A01 T01800132  RH  073%=      5-min Rain = 0
KHA2 141125Z 01014KT 18/13 A3027 RMK A01 T01800132  RH  073%=      5-min Rain = 0
KHA2 141126Z 01016KT 18/13 A3027 RMK A01 T01800131  RH  073%=      5-min Rain = 0
KHA2 141127Z 01017KT 18/13 A3027 RMK A01 T01800132  RH  074%=      5-min Rain = 0
KHA2 141128Z 01013KT 18/13 A3027 RMK A01 T01800132  RH  073%=      5-min Rain = 0
KHA2 141129Z 02012KT 18/13 A3026 RMK A01 T01800131  RH  073%=      5-min Rain = 0
KHA2 141130Z 02010KT 18/13 A3026 RMK A01 T01810132  RH  073%=      5-min Rain = 0
KHA2 141131Z 02009KT 18/13 A3026 RMK A01 T01810133  RH  073%=      5-min Rain = 0
KHA2 141132Z 02009KT 18/13 A3026 RMK A01 T01810133  RH  074%=      5-min Rain = 0
KHA2 141133Z 01014KT 18/13 A3027 RMK A01 T01800132  RH  074%=      5-min Rain = 0
KHA2 141134Z 01016KT 18/13 A3027 RMK A01 T01800132  RH  074%=      5-min Rain = 0
KHA2 141135Z 01016KT 18/13 A3027 RMK A01 T01800132  RH  074%=      5-min Rain = 0
KHA2 141136Z 02012KT 18/13 A3027 RMK A01 T01790132  RH  073%=      5-min Rain = 0
KHA2 141137Z 02010KT 18/13 A3027 RMK A01 T01790132  RH  074%=      5-min Rain = 0
KHA2 141138Z 03009KT 18/13 A3026 RMK A01 T01800132  RH  074%=      5-min Rain = 0
KHA2 141139Z 02009KT 18/13 A3027 RMK A01 T01800133  RH  074%=      5-min Rain = 0
KHA2 141140Z 02011KT 18/13 A3027 RMK A01 T01800133  RH  074%=      5-min Rain = 0
KHA2 141141Z 01012KT 18/13 A3028 RMK A01 T01790132  RH  074%=      5-min Rain = 0
KHA2 141142Z 01013KT 18/13 A3028 RMK A01 T01790132  RH  074%=      5-min Rain = 0
KHA2 141143Z 01012KT 18/13 A3028 RMK A01 T01780132  RH  074%=      5-min Rain = 0
KHA2 141144Z 02009KT 18/13 A3027 RMK A01 T01780131  RH  074%=      5-min Rain = 0
KHA2 141145Z 01009KT 18/13 A3027 RMK A01 T01780131  RH  074%=      5-min Rain = 0
KHA2 141146Z 02008KT 18/13 A3027 RMK A01 T01790130  RH  073%=      5-min Rain = 0
KHA2 141147Z 02009KT 18/13 A3027 RMK A01 T01790132  RH  074%=      5-min Rain = 0
KHA2 141148Z 01010KT 18/13 A3027 RMK A01 T01790132  RH  074%=      5-min Rain = 0
KHA2 141149Z 01009KT 18/13 A3027 RMK A01 T01790132  RH  074%=      5-min Rain = 0
KHA2 141150Z 01008KT 18/13 A3027 RMK A01 T01780131  RH  074%=      5-min Rain = 0
KHA2 141151Z 01009KT 18/13 A3027 RMK A01 T01780131  RH  074%=      5-min Rain = 0
KHA2 141152Z 01008KT 18/13 A3027 RMK A01 T01780131  RH  074%=      5-min Rain = 0
KHA2 141153Z 01008KT 18/13 A3027 RMK A01 T01780131  RH  074%=      5-min Rain = 0
KHA2 141154Z 02007KT 18/13 A3027 RMK A01 T01780130  RH  074%=      5-min Rain = 0
KHA2 141155Z 02006KT 18/13 A3027 RMK A01 T01780132  RH  074%=      5-min Rain = 0
KHA2 141156Z 02007KT 18/13 A3027 RMK A01 T01790132  RH  074%=      5-min Rain = 0
KHA2 141157Z 03006KT 18/13 A3027 RMK A01 T01790133  RH  074%=      5-min Rain = 0
KHA2 141158Z 03006KT 18/13 A3027 RMK A01 T01790134  RH  075%=      5-min Rain = 0
KHA2 141159Z 03008KT 18/13 A3027 RMK A01 T01790134  RH  075%=      5-min Rain = 0
KHA2 141200Z 03008KT 18/13 A3027 RMK A01 T01780133  RH  075%=      5-min Rain = 0
KHA2 141201Z 03006KT 18/13 A3027 RMK A01 T01780133  RH  075%=      5-min Rain = 0
KHA2 141202Z 03006KT 18/13 A3027 RMK A01 T01780134  RH  075%=      5-min Rain = 0
KHA2 141203Z 04005KT 18/13 A3027 RMK A01 T01780133  RH  075%=      5-min Rain = 0
KHA2 141204Z 03005KT 18/13 A3027 RMK A01 T01790134  RH  075%=      5-min Rain = 0
KHA2 141205Z 03005KT 18/13 A3027 RMK A01 T01780134  RH  075%=      5-min Rain = 0
KHA2 141206Z 03005KT 18/13 A3027 RMK A01 T01780134  RH  075%=      5-min Rain = 0
KHA2 141207Z 03006KT 18/13 A3027 RMK A01 T01780134  RH  075%=      5-min Rain = 0
KHA2 141208Z 03006KT 18/13 A3027 RMK A01 T01780134  RH  075%=      5-min Rain = 0
KHA2 141209Z 03004KT 18/13 A3027 RMK A01 T01780133  RH  075%=      5-min Rain = 0
KHA2 141210Z 03006KT 18/13 A3027 RMK A01 T01780134  RH  075%=      5-min Rain = 0
KHA2 141211Z 03006KT 18/13 A3027 RMK A01 T01780133  RH  075%=      5-min Rain = 0
KHA2 141212Z 03006KT 18/13 A3027 RMK A01 T01790133  RH  075%=      5-min Rain = 0
KHA2 141213Z 03006KT 18/13 A3027 RMK A01 T01790134  RH  075%=      5-min Rain = 0
KHA2 141214Z 03006KT 18/13 A3027 RMK A01 T01790134  RH  075%=      5-min Rain = 0
KHA2 141215Z 03007KT 18/13 A3027 RMK A01 T01790134  RH  075%=      5-min Rain = 0
KHA2 141216Z 03006KT 18/13 A3027 RMK A01 T01790133  RH  074%=      5-min Rain = 0
KHA2 141217Z 02006KT 18/13 A3027 RMK A01 T01800134  RH  075%=      5-min Rain = 0
KHA2 141218Z 02007KT 18/13 A3027 RMK A01 T01800134  RH  075%=      5-min Rain = 0
KHA2 141219Z 02008KT 18/13 A3027 RMK A01 T01800134  RH  075%=      5-min Rain = 0
KHA2 141220Z 02007KT 18/13 A3027 RMK A01 T01800133  RH  074%=      5-min Rain = 0
KHA2 141221Z 02007KT 18/13 A3027 RMK A01 T01810133  RH  074%=      5-min Rain = 0
KHA2 141222Z 02008KT 18/13 A3027 RMK A01 T01810134  RH  074%=      5-min Rain = 0
KHA2 141223Z 01009KT 18/13 A3027 RMK A01 T01820132  RH  073%=      5-min Rain = 0
KHA2 141224Z 01007KT 18/13 A3027 RMK A01 T01830132  RH  072%=      5-min Rain = 0
KHA2 141225Z 01008KT 18/13 A3028 RMK A01 T01830132  RH  072%=      5-min Rain = 0
KHA2 141226Z 00008KT 18/13 A3028 RMK A01 T01830130  RH  071%=      5-min Rain = 0
KHA2 141227Z 00009KT 18/13 A3028 RMK A01 T01830132  RH  072%=      5-min Rain = 0
KHA2 141228Z 00009KT 18/13 A3028 RMK A01 T01830131  RH  072%=      5-min Rain = 0
KHA2 141229Z 00008KT 18/13 A3028 RMK A01 T01830131  RH  072%=      5-min Rain = 0
KHA2 141230Z 00009KT 18/13 A3028 RMK A01 T01840131  RH  072%=      5-min Rain = 0
KHA2 141231Z 00008KT 18/13 A3028 RMK A01 T01830131  RH  071%=      5-min Rain = 0
KHA2 141232Z 00007KT 18/13 A3028 RMK A01 T01830130  RH  071%=      5-min Rain = 0
KHA2 141233Z 01007KT 18/13 A3028 RMK A01 T01840131  RH  071%=      5-min Rain = 0
KHA2 141234Z 02006KT 18/13 A3028 RMK A01 T01840131  RH  071%=      5-min Rain = 0
KHA2 141235Z 02006KT 19/13 A3028 RMK A01 T01850130  RH  070%=      5-min Rain = 0
KHA2 141236Z 02006KT 19/13 A3028 RMK A01 T01860131  RH  070%=      5-min Rain = 0
KHA2 141237Z 02007KT 19/13 A3028 RMK A01 T01870132  RH  070%=      5-min Rain = 0
KHA2 141238Z 01007KT 19/13 A3028 RMK A01 T01880132  RH  070%=      5-min Rain = 0
KHA2 141239Z 01007KT 19/13 A3028 RMK A01 T01880132  RH  070%=      5-min Rain = 0
KHA2 141240Z 01008KT 19/13 A3029 RMK A01 T01880131  RH  070%=      5-min Rain = 0
KHA2 141241Z 01007KT 19/13 A3029 RMK A01 T01880131  RH  069%=      5-min Rain = 0
KHA2 141242Z 36007KT 19/13 A3029 RMK A01 T01880131  RH  069%=      5-min Rain = 0
KHA2 141243Z 00008KT 19/13 A3029 RMK A01 T01880131  RH  070%=      5-min Rain = 0
KHA2 141244Z 01007KT 19/13 A3029 RMK A01 T01870131  RH  070%=      5-min Rain = 0
KHA2 141245Z 01006KT 19/13 A3029 RMK A01 T01870130  RH  069%=      5-min Rain = 0
KHA2 141246Z 00008KT 19/13 A3029 RMK A01 T01870130  RH  069%=      5-min Rain = 0
KHA2 141247Z 00008KT 19/13 A3029 RMK A01 T01880130  RH  069%=      5-min Rain = 0
KHA2 141248Z 36008KT 19/13 A3029 RMK A01 T01880129  RH  069%=      5-min Rain = 0
KHA2 141249Z 36008KT 19/13 A3029 RMK A01 T01880130  RH  069%=      5-min Rain = 0
KHA2 141250Z 00007KT 19/13 A3029 RMK A01 T01880130  RH  069%=      5-min Rain = 0
KHA2 141251Z 36007KT 19/13 A3029 RMK A01 T01880130  RH  069%=      5-min Rain = 0
KHA2 141252Z 35006KT 19/13 A3029 RMK A01 T01880130  RH  069%=      5-min Rain = 0
KHA2 141253Z 00006KT 19/13 A3029 RMK A01 T01870129  RH  069%=      5-min Rain = 0
KHA2 141254Z 01006KT 19/13 A3029 RMK A01 T01870129  RH  069%=      5-min Rain = 0
KHA2 141255Z 00006KT 19/13 A3029 RMK A01 T01870130  RH  069%=      5-min Rain = 0
KHA2 141256Z 00006KT 19/13 A3029 RMK A01 T01880129  RH  069%=      5-min Rain = 0
KHA2 141257Z 00006KT 19/13 A3029 RMK A01 T01890129  RH  068%=      5-min Rain = 0
KHA2 141258Z 36006KT 19/13 A3029 RMK A01 T01890129  RH  068%=      5-min Rain = 0
KHA2 141259Z 35006KT 19/13 A3029 RMK A01 T01890129  RH  068%=      5-min Rain = 0
KHA2 141300Z 36005KT 19/13 A3029 RMK A01 T01890129  RH  068%=      5-min Rain = 0
KHA2 141301Z 00006KT 19/13 A3029 RMK A01 T01890129  RH  068%=      5-min Rain = 0
KHA2 141302Z 00006KT 19/13 A303 RMK A01 T01900129  RH  067%=      5-min Rain = 0
KHA2 141303Z 35005KT 19/13 A303 RMK A01 T01900129  RH  068%=      5-min Rain = 0
KHA2 141304Z 35005KT 19/13 A303 RMK A01 T01900129  RH  067%=      5-min Rain = 0
KHA2 141305Z 34005KT 19/13 A303 RMK A01 T01900129  RH  068%=      5-min Rain = 0
KHA2 141306Z 34004KT 19/13 A303 RMK A01 T01900130  RH  068%=      5-min Rain = 0
KHA2 141307Z 34005KT 19/13 A303 RMK A01 T01900130  RH  068%=      5-min Rain = 0
KHA2 141308Z 34005KT 19/13 A303 RMK A01 T01900129  RH  068%=      5-min Rain = 0
KHA2 141309Z 34005KT 19/13 A303 RMK A01 T01900129  RH  068%=      5-min Rain = 0
KHA2 141310Z 34004KT 19/13 A303 RMK A01 T01910130  RH  068%=      5-min Rain = 0
KHA2 141311Z 34003KT 19/13 A303 RMK A01 T01910129  RH  067%=      5-min Rain = 0
KHA2 141312Z 35003KT 19/13 A303 RMK A01 T01920130  RH  067%=      5-min Rain = 0
KHA2 141313Z 35004KT 19/13 A303 RMK A01 T01920130  RH  067%=      5-min Rain = 0
KHA2 141314Z 34004KT 19/13 A303 RMK A01 T01920130  RH  067%=      5-min Rain = 0
KHA2 141315Z 34005KT 19/13 A303 RMK A01 T01930131  RH  067%=      5-min Rain = 0
KHA2 141316Z 34005KT 19/13 A303 RMK A01 T01930129  RH  067%=      5-min Rain = 0
KHA2 141317Z 35004KT 19/13 A303 RMK A01 T01930131  RH  067%=      5-min Rain = 0
KHA2 141318Z 35004KT 19/13 A303 RMK A01 T01930131  RH  067%=      5-min Rain = 0
KHA2 141319Z 35005KT 19/13 A303 RMK A01 T01930130  RH  067%=      5-min Rain = 0
KHA2 141320Z 35005KT 19/13 A303 RMK A01 T01940130  RH  066%=      5-min Rain = 0
KHA2 141321Z 35006KT 19/13 A303 RMK A01 T01940131  RH  067%=      5-min Rain = 0
KHA2 141322Z 35006KT 19/13 A303 RMK A01 T01940130  RH  066%=      5-min Rain = 0
KHA2 141323Z 34005KT 19/13 A303 RMK A01 T01940130  RH  066%=      5-min Rain = 0
KHA2 141324Z 35006KT 20/13 A303 RMK A01 T01950130  RH  066%=      5-min Rain = 0
KHA2 141325Z 35006KT 20/13 A303 RMK A01 T01950129  RH  065%=      5-min Rain = 0
KHA2 141326Z 35006KT 20/13 A303 RMK A01 T01960128  RH  065%=      5-min Rain = 0
KHA2 141327Z 35006KT 20/13 A303 RMK A01 T01970128  RH  065%=      5-min Rain = 0
KHA2 141328Z 36006KT 20/13 A303 RMK A01 T01970127  RH  064%=      5-min Rain = 0
KHA2 141329Z 35006KT 20/13 A303 RMK A01 T01980127  RH  064%=      5-min Rain = 0
KHA2 141330Z 35005KT 20/13 A303 RMK A01 T01990127  RH  063%=      5-min Rain = 0
KHA2 141331Z 36004KT 20/13 A303 RMK A01 T02000127  RH  063%=      5-min Rain = 0
KHA2 141332Z 00003KT 20/13 A303 RMK A01 T02000127  RH  063%=      5-min Rain = 0
KHA2 141333Z 35004KT 20/13 A303 RMK A01 T02010127  RH  062%=      5-min Rain = 0
KHA2 141334Z 35005KT 20/13 A303 RMK A01 T02010125  RH  061%=      5-min Rain = 0
KHA2 141335Z 35006KT 20/12 A303 RMK A01 T02020123  RH  060%=      5-min Rain = 0
KHA2 141336Z 34005KT 20/12 A303 RMK A01 T02040124  RH  060%=      5-min Rain = 0
KHA2 141337Z 33005KT 20/13 A303 RMK A01 T02040126  RH  061%=      5-min Rain = 0
KHA2 141338Z 33005KT 20/13 A303 RMK A01 T02040127  RH  061%=      5-min Rain = 0
KHA2 141339Z 32004KT 20/13 A303 RMK A01 T02040127  RH  061%=      5-min Rain = 0
KHA2 141340Z 33004KT 20/13 A303 RMK A01 T02030127  RH  062%=      5-min Rain = 0
KHA2 141341Z 32004KT 20/13 A303 RMK A01 T02030125  RH  061%=      5-min Rain = 0
KHA2 141342Z 31004KT 20/13 A303 RMK A01 T02030127  RH  061%=      5-min Rain = 0
KHA2 141343Z 31005KT 20/13 A303 RMK A01 T02040129  RH  062%=      5-min Rain = 0
KHA2 141344Z 31005KT 20/13 A303 RMK A01 T02030128  RH  062%=      5-min Rain = 0
KHA2 141345Z 31005KT 20/13 A303 RMK A01 T02030128  RH  062%=      5-min Rain = 0
KHA2 141346Z 32005KT 20/13 A303 RMK A01 T02030127  RH  062%=      5-min Rain = 0
KHA2 141347Z 31004KT 20/13 A303 RMK A01 T02030127  RH  062%=      5-min Rain = 0
KHA2 141348Z 31004KT 20/13 A303 RMK A01 T02030127  RH  062%=      5-min Rain = 0
KHA2 141349Z 32003KT 20/13 A303 RMK A01 T02030128  RH  062%=      5-min Rain = 0
KHA2 141350Z 32004KT 20/13 A3029 RMK A01 T02030127  RH  062%=      5-min Rain = 0
KHA2 141351Z 31003KT 20/13 A3029 RMK A01 T02030127  RH  061%=      5-min Rain = 0
KHA2 141352Z 29004KT 20/13 A3029 RMK A01 T02030128  RH  062%=      5-min Rain = 0
KHA2 141353Z 29003KT 20/13 A3029 RMK A01 T02030128  RH  062%=      5-min Rain = 0
KHA2 141354Z 29003KT 20/13 A3029 RMK A01 T02020125  RH  061%=      5-min Rain = 0
KHA2 141355Z 28002KT 20/12 A3029 RMK A01 T02030124  RH  061%=      5-min Rain = 0
KHA2 141356Z 27002KT 20/13 A3029 RMK A01 T02030126  RH  061%=      5-min Rain = 0
KHA2 141357Z 23002KT 20/12 A3029 RMK A01 T02030123  RH  060%=      5-min Rain = 0
KHA2 141358Z 23003KT 20/13 A3028 RMK A01 T02030126  RH  061%=      5-min Rain = 0
KHA2 141359Z 21002KT 20/12 A3028 RMK A01 T02040124  RH  060%=      5-min Rain = 0
KHA2 141400Z 20003KT 20/13 A3028 RMK A01 T02040129  RH  062%=      5-min Rain = 0
KHA2 141401Z 19004KT 20/13 A3028 RMK A01 T02040132  RH  063%=      5-min Rain = 0
KHA2 141402Z 18004KT 20/13 A3028 RMK A01 T02040133  RH  064%=      5-min Rain = 0
KHA2 141403Z 17004KT 20/14 A3027 RMK A01 T02030135  RH  065%=      5-min Rain = 0
KHA2 141404Z 18004KT 20/14 A3027 RMK A01 T02020138  RH  066%=      5-min Rain = 0
KHA2 141405Z 22003KT 20/14 A3028 RMK A01 T02020138  RH  067%=      5-min Rain = 0
KHA2 141406Z 27004KT 20/14 A3029 RMK A01 T02010136  RH  066%=      5-min Rain = 0
KHA2 141407Z 28004KT 20/14 A3029 RMK A01 T02010136  RH  066%=      5-min Rain = 0
KHA2 141408Z 25002KT 20/13 A3028 RMK A01 T02000134  RH  066%=      5-min Rain = 0
KHA2 141409Z 26003KT 20/13 A3028 RMK A01 T02000134  RH  066%=      5-min Rain = 0
KHA2 141410Z 28004KT 20/13 A3028 RMK A01 T02000134  RH  066%=      5-min Rain = 0
KHA2 141411Z 28004KT 20/13 A3028 RMK A01 T02000133  RH  065%=      5-min Rain = 0
KHA2 141412Z 28004KT 20/13 A3028 RMK A01 T02000132  RH  065%=      5-min Rain = 0
KHA2 141413Z 26003KT 20/13 A3028 RMK A01 T02000132  RH  065%=      5-min Rain = 0
KHA2 141414Z 26003KT 20/13 A3029 RMK A01 T02000132  RH  065%=      5-min Rain = 0
KHA2 141415Z 26004KT 20/13 A3029 RMK A01 T02000130  RH  064%=      5-min Rain = 0
KHA2 141416Z 25005KT 20/13 A3029 RMK A01 T02010131  RH  064%=      5-min Rain = 0
KHA2 141417Z 25005KT 20/13 A3029 RMK A01 T02010133  RH  065%=      5-min Rain = 0
KHA2 141418Z 25006KT 20/13 A3029 RMK A01 T02010134  RH  065%=      5-min Rain = 0
KHA2 141419Z 25007KT 20/14 A3029 RMK A01 T02010135  RH  066%=      5-min Rain = 0
KHA2 141420Z 26007KT 20/14 A3029 RMK A01 T02000136  RH  066%=      5-min Rain = 0
KHA2 141421Z 25007KT 20/14 A3029 RMK A01 T02000137  RH  067%=      5-min Rain = 0
KHA2 141422Z 24007KT 20/14 A3029 RMK A01 T02000136  RH  067%=      5-min Rain = 0
KHA2 141423Z 24007KT 20/14 A3029 RMK A01 T02000135  RH  066%=      5-min Rain = 0
KHA2 141424Z 24006KT 20/14 A3028 RMK A01 T01990137  RH  067%=      5-min Rain = 0
KHA2 141425Z 24006KT 20/14 A3028 RMK A01 T02000139  RH  068%=      5-min Rain = 0
KHA2 141426Z 24005KT 20/14 A3028 RMK A01 T01990138  RH  068%=      5-min Rain = 0
KHA2 141427Z 23004KT 20/14 A3028 RMK A01 T01990139  RH  068%=      5-min Rain = 0
KHA2 141428Z 23005KT 20/14 A3028 RMK A01 T01990139  RH  069%=      5-min Rain = 0
KHA2 141429Z 23006KT 20/14 A3027 RMK A01 T01990140  RH  069%=      5-min Rain = 0
KHA2 141430Z 23006KT 20/14 A3027 RMK A01 T01990138  RH  068%=      5-min Rain = 0
KHA2 141431Z 23006KT 20/14 A3027 RMK A01 T01990140  RH  069%=      5-min Rain = 0
KHA2 141432Z 21006KT 20/14 A3027 RMK A01 T01990140  RH  069%=      5-min Rain = 0
KHA2 141433Z 21005KT 20/14 A3027 RMK A01 T01990138  RH  068%=      5-min Rain = 0
KHA2 141434Z 22005KT 20/14 A3027 RMK A01 T02000139  RH  068%=      5-min Rain = 0
KHA2 141435Z 21004KT 20/14 A3027 RMK A01 T01990139  RH  068%=      5-min Rain = 0
KHA2 141436Z 21004KT 20/14 A3027 RMK A01 T02000138  RH  068%=      5-min Rain = 0
KHA2 141437Z 21003KT 20/14 A3027 RMK A01 T02000139  RH  068%=      5-min Rain = 0
KHA2 141438Z 19003KT 20/14 A3027 RMK A01 T02000138  RH  067%=      5-min Rain = 0
KHA2 141439Z 19003KT 20/14 A3027 RMK A01 T02010138  RH  067%=      5-min Rain = 0
KHA2 141440Z 18004KT 20/14 A3026 RMK A01 T02010138  RH  067%=      5-min Rain = 0
KHA2 141441Z 17005KT 20/14 A3026 RMK A01 T02020138  RH  067%=      5-min Rain = 0
KHA2 141442Z 17005KT 20/14 A3026 RMK A01 T02020140  RH  068%=      5-min Rain = 0
KHA2 141443Z 16006KT 20/14 A3026 RMK A01 T02020139  RH  067%=      5-min Rain = 0
KHA2 141444Z 16006KT 20/14 A3026 RMK A01 T02030136  RH  066%=      5-min Rain = 0
KHA2 141445Z 16006KT 20/14 A3026 RMK A01 T02030140  RH  067%=      5-min Rain = 0
KHA2 141446Z 17006KT 20/14 A3027 RMK A01 T02030142  RH  068%=      5-min Rain = 0
KHA2 141447Z 18007KT 20/14 A3026 RMK A01 T02030141  RH  068%=      5-min Rain = 0
KHA2 141448Z 18008KT 20/14 A3026 RMK A01 T02040142  RH  068%=      5-min Rain = 0
KHA2 141449Z 18008KT 20/14 A3026 RMK A01 T02030141  RH  067%=      5-min Rain = 0
KHA2 141450Z 18009KT 20/14 A3026 RMK A01 T02030141  RH  067%=      5-min Rain = 0
KHA2 141451Z 17008KT 20/14 A3026 RMK A01 T02040139  RH  066%=      5-min Rain = 0
KHA2 141452Z 16008KT 20/14 A3026 RMK A01 T02040141  RH  067%=      5-min Rain = 0
KHA2 141453Z 16009KT 20/14 A3026 RMK A01 T02040141  RH  067%=      5-min Rain = 0
KHA2 141454Z 15009KT 20/14 A3025 RMK A01 T02040138  RH  066%=      5-min Rain = 0
KHA2 141455Z 15010KT 20/14 A3025 RMK A01 T02040139  RH  066%=      5-min Rain = 0
KHA2 141456Z 14011KT 20/14 A3025 RMK A01 T02040139  RH  066%=      5-min Rain = 0
KHA2 141457Z 14011KT 20/14 A3025 RMK A01 T02040139  RH  066%=      5-min Rain = 0
KHA2 141458Z 14011KT 21/14 A3025 RMK A01 T02050137  RH  065%=      5-min Rain = 0
KHA2 141459Z 15011KT 21/14 A3025 RMK A01 T02060137  RH  065%=      5-min Rain = 0
KHA2 141500Z 15009KT 21/13 A3025 RMK A01 T02050134  RH  063%=      5-min Rain = 0
KHA2 141501Z 16009KT 21/14 A3025 RMK A01 T02060135  RH  064%=      5-min Rain = 0
KHA2 141502Z 16007KT 21/13 A3025 RMK A01 T02070134  RH  063%=      5-min Rain = 0
KHA2 141503Z 16007KT 21/13 A3025 RMK A01 T02070134  RH  063%=      5-min Rain = 0
KHA2 141504Z 16008KT 21/13 A3026 RMK A01 T02080134  RH  062%=      5-min Rain = 0
KHA2 141505Z 16008KT 21/13 A3026 RMK A01 T02090133  RH  062%=      5-min Rain = 0
KHA2 141506Z 16007KT 21/13 A3026 RMK A01 T02090131  RH  061%=      5-min Rain = 0
KHA2 141507Z 16007KT 21/13 A3026 RMK A01 T02100132  RH  061%=      5-min Rain = 0
KHA2 141508Z 15008KT 21/13 A3026 RMK A01 T02110130  RH  060%=      5-min Rain = 0
KHA2 141509Z 16007KT 21/13 A3026 RMK A01 T02110130  RH  060%=      5-min Rain = 0
KHA2 141510Z 15008KT 21/13 A3026 RMK A01 T02120130  RH  060%=      5-min Rain = 0
KHA2 141511Z 16006KT 21/13 A3026 RMK A01 T02130129  RH  059%=      5-min Rain = 0
KHA2 141512Z 16007KT 21/13 A3026 RMK A01 T02130131  RH  059%=      5-min Rain = 0
KHA2 141513Z 17007KT 21/13 A3026 RMK A01 T02140130  RH  059%=      5-min Rain = 0
KHA2 141514Z 16007KT 22/13 A3026 RMK A01 T02150129  RH  058%=      5-min Rain = 0
KHA2 141515Z 16007KT 22/13 A3026 RMK A01 T02150130  RH  058%=      5-min Rain = 0
KHA2 141516Z 17006KT 22/13 A3026 RMK A01 T02160132  RH  059%=      5-min Rain = 0
KHA2 141517Z 16005KT 22/13 A3026 RMK A01 T02160134  RH  059%=      5-min Rain = 0
KHA2 141518Z 16006KT 22/13 A3026 RMK A01 T02180134  RH  059%=      5-min Rain = 0
KHA2 141519Z 15006KT 22/13 A3026 RMK A01 T02180130  RH  057%=      5-min Rain = 0
KHA2 141520Z 15006KT 22/13 A3026 RMK A01 T02190130  RH  057%=      5-min Rain = 0
KHA2 141521Z 14006KT 22/13 A3026 RMK A01 T02190131  RH  057%=      5-min Rain = 0
KHA2 141522Z 14006KT 22/13 A3026 RMK A01 T02190128  RH  056%=      5-min Rain = 0
KHA2 141523Z 15006KT 22/13 A3025 RMK A01 T02200127  RH  056%=      5-min Rain = 0
KHA2 141524Z 13006KT 22/13 A3025 RMK A01 T02200128  RH  056%=      5-min Rain = 0
KHA2 141525Z 13006KT 22/12 A3025 RMK A01 T02210124  RH  054%=      5-min Rain = 0
KHA2 141526Z 13006KT 22/12 A3025 RMK A01 T02210124  RH  054%=      5-min Rain = 0
KHA2 141527Z 13006KT 22/13 A3025 RMK A01 T02220126  RH  055%=      5-min Rain = 0
KHA2 141528Z 13005KT 22/13 A3025 RMK A01 T02230125  RH  054%=      5-min Rain = 0
KHA2 141529Z 13004KT 22/13 A3025 RMK A01 T02240126  RH  054%=      5-min Rain = 0
KHA2 141530Z 14005KT 23/13 A3025 RMK A01 T02250125  RH  053%=      5-min Rain = 0
KHA2 141531Z 14003KT 23/13 A3026 RMK A01 T02250125  RH  053%=      5-min Rain = 0
KHA2 141532Z 17002KT 23/13 A3026 RMK A01 T02260125  RH  053%=      5-min Rain = 0
KHA2 141533Z 18002KT 23/13 A3026 RMK A01 T02270125  RH  052%=      5-min Rain = 0
KHA2 141534Z 25003KT 23/13 A3026 RMK A01 T02280126  RH  053%=      5-min Rain = 0
KHA2 141535Z 27004KT 23/13 A3026 RMK A01 T02280128  RH  053%=      5-min Rain = 0
KHA2 141536Z 29005KT 23/13 A3027 RMK A01 T02290129  RH  053%=      5-min Rain = 0
KHA2 141537Z 29006KT 23/13 A3027 RMK A01 T02290127  RH  052%=      5-min Rain = 0
KHA2 141538Z 28006KT 23/13 A3027 RMK A01 T02300132  RH  054%=      5-min Rain = 0
KHA2 141539Z 26006KT 23/13 A3027 RMK A01 T02310132  RH  054%=      5-min Rain = 0
KHA2 141540Z 25005KT 23/13 A3027 RMK A01 T02310129  RH  052%=      5-min Rain = 0
KHA2 141541Z 25004KT 23/13 A3027 RMK A01 T02310130  RH  053%=      5-min Rain = 0
KHA2 141542Z 24004KT 23/13 A3027 RMK A01 T02300129  RH  053%=      5-min Rain = 0
KHA2 141543Z 24005KT 23/13 A3027 RMK A01 T02310129  RH  053%=      5-min Rain = 0
KHA2 141544Z 23005KT 23/13 A3027 RMK A01 T02300130  RH  053%=      5-min Rain = 0
KHA2 141545Z 22006KT 23/13 A3027 RMK A01 T02300128  RH  053%=      5-min Rain = 0
KHA2 141546Z 22006KT 23/13 A3027 RMK A01 T02300127  RH  052%=      5-min Rain = 0
KHA2 141547Z 23007KT 23/13 A3027 RMK A01 T02300129  RH  053%=      5-min Rain = 0
KHA2 141548Z 21008KT 23/13 A3027 RMK A01 T02300128  RH  053%=      5-min Rain = 0
KHA2 141549Z 22008KT 23/13 A3027 RMK A01 T02310129  RH  052%=      5-min Rain = 0
KHA2 141550Z 23007KT 23/12 A3027 RMK A01 T02320124  RH  051%=      5-min Rain = 0
KHA2 141551Z 23007KT 23/13 A3027 RMK A01 T02320125  RH  051%=      5-min Rain = 0
KHA2 141552Z 23007KT 23/13 A3027 RMK A01 T02320125  RH  051%=      5-min Rain = 0
KHA2 141553Z 23005KT 23/12 A3027 RMK A01 T02330123  RH  050%=      5-min Rain = 0
KHA2 141554Z 22002KT 23/12 A3028 RMK A01 T02330122  RH  050%=      5-min Rain = 0
KHA2 141555Z 22000KT 23/12 A3028 RMK A01 T02330120  RH  049%=      5-min Rain = 0
KHA2 141556Z 11001KT 23/12 A3028 RMK A01 T02340123  RH  049%=      5-min Rain = 0
KHA2 141557Z 11003KT 24/13 A3028 RMK A01 T02380126  RH  049%=      5-min Rain = 0
KHA2 141558Z 12003KT 24/12 A3028 RMK A01 T02420122  RH  047%=      5-min Rain = 0
KHA2 141559Z 16002KT 24/12 A3028 RMK A01 T02430124  RH  047%=      5-min Rain = 0
KHA2 141600Z 23002KT 25/13 A3028 RMK A01 T02460127  RH  048%=      5-min Rain = 0
KHA2 141601Z 24002KT 25/13 A3028 RMK A01 T02470126  RH  047%=      5-min Rain = 0
KHA2 141602Z 34004KT 25/13 A3029 RMK A01 T02500130  RH  047%=      5-min Rain = 0
KHA2 141603Z 35004KT 25/13 A3029 RMK A01 T02500125  RH  046%=      5-min Rain = 0
KHA2 141604Z 36004KT 25/12 A3029 RMK A01 T02470123  RH  046%=      5-min Rain = 0
KHA2 141605Z 04005KT 25/12 A3029 RMK A01 T02460123  RH  046%=      5-min Rain = 0
KHA2 141606Z 07004KT 25/12 A3028 RMK A01 T02460121  RH  046%=      5-min Rain = 0
KHA2 141607Z 09001KT 25/12 A3028 RMK A01 T02460120  RH  045%=      5-min Rain = 0
KHA2 141608Z 07003KT 25/12 A3028 RMK A01 T02460121  RH  045%=      5-min Rain = 0
KHA2 141609Z 06004KT 25/12 A3028 RMK A01 T02460121  RH  046%=      5-min Rain = 0
KHA2 141610Z 05004KT 25/12 A3028 RMK A01 T02470121  RH  045%=      5-min Rain = 0
KHA2 141611Z 05005KT 25/12 A3028 RMK A01 T02480119  RH  044%=      5-min Rain = 0
KHA2 141612Z 06004KT 25/12 A3028 RMK A01 T02480117  RH  044%=      5-min Rain = 0
KHA2 141613Z 04001KT 25/12 A3028 RMK A01 T02480118  RH  044%=      5-min Rain = 0
KHA2 141614Z 07002KT 25/12 A3028 RMK A01 T02480120  RH  045%=      5-min Rain = 0
KHA2 141615Z 08001KT 25/12 A3029 RMK A01 T02500119  RH  044%=      5-min Rain = 0
KHA2 141616Z 05001G6KT 25/12 A3029 RMK A01 T02510120  RH  044%=      5-min Rain = 0
KHA2 141617Z 03006KT 25/12 A3029 RMK A01 T02540124  RH  044%=      5-min Rain = 0
KHA2 141618Z 01008KT 26/13 A3029 RMK A01 T02560126  RH  044%=      5-min Rain = 0
KHA2 141619Z 01010KT 26/12 A3029 RMK A01 T02580122  RH  043%=      5-min Rain = 0
KHA2 141620Z 00010KT 26/12 A3029 RMK A01 T02570123  RH  043%=      5-min Rain = 0
KHA2 141621Z 02011KT 26/12 A3029 RMK A01 T02600124  RH  043%=      5-min Rain = 0
KHA2 141622Z 02011KT 26/12 A3029 RMK A01 T02600121  RH  042%=      5-min Rain = 0
KHA2 141623Z 02010KT 26/12 A3029 RMK A01 T02600120  RH  042%=      5-min Rain = 0
KHA2 141624Z 01010KT 26/12 A3029 RMK A01 T02620122  RH  042%=      5-min Rain = 0
KHA2 141625Z 02008KT 26/12 A3028 RMK A01 T02630122  RH  042%=      5-min Rain = 0
KHA2 141626Z 05007KT 26/12 A3028 RMK A01 T02630124  RH  042%=      5-min Rain = 0
KHA2 141627Z 04011KT 27/12 A3028 RMK A01 T02650123  RH  041%=      5-min Rain = 0
KHA2 141628Z 03010KT 27/12 A3028 RMK A01 T02660119  RH  040%=      5-min Rain = 0
KHA2 141629Z 04011G16KT 26/12 A3028 RMK A01 T02630120  RH  041%=      5-min Rain = 0
KHA2 141630Z 03014KT 26/12 A3029 RMK A01 T02620120  RH  041%=      5-min Rain = 0
KHA2 141631Z 04015KT 26/12 A3029 RMK A01 T02610122  RH  042%=      5-min Rain = 0
KHA2 141632Z 03014KT 26/12 A3029 RMK A01 T02610124  RH  043%=      5-min Rain = 0
KHA2 141633Z 05013KT 26/13 A3028 RMK A01 T02620126  RH  043%=      5-min Rain = 0
KHA2 141634Z 05014KT 26/13 A3028 RMK A01 T02640125  RH  042%=      5-min Rain = 0
KHA2 141635Z 05011KT 26/12 A3028 RMK A01 T02620123  RH  042%=      5-min Rain = 0
KHA2 141636Z 05011KT 26/12 A3027 RMK A01 T02610124  RH  043%=      5-min Rain = 0
KHA2 141637Z 05010KT 26/12 A3027 RMK A01 T02620124  RH  042%=      5-min Rain = 0
KHA2 141638Z 05010KT 26/12 A3027 RMK A01 T02610122  RH  042%=      5-min Rain = 0
KHA2 141639Z 05009KT 26/12 A3027 RMK A01 T02580123  RH  043%=      5-min Rain = 0
KHA2 141640Z 05009KT 26/12 A3028 RMK A01 T02570122  RH  043%=      5-min Rain = 0
KHA2 141641Z 04008KT 26/12 A3028 RMK A01 T02570121  RH  043%=      5-min Rain = 0
KHA2 141642Z 04008KT 26/12 A3027 RMK A01 T02560120  RH  043%=      5-min Rain = 0
KHA2 141643Z 05008KT 26/12 A3027 RMK A01 T02560119  RH  043%=      5-min Rain = 0
KHA2 141644Z 03011KT 26/12 A3027 RMK A01 T02580121  RH  042%=      5-min Rain = 0
KHA2 141645Z 03013KT 26/12 A3027 RMK A01 T02590119  RH  041%=      5-min Rain = 0
KHA2 141646Z 04013G18KT 26/12 A3027 RMK A01 T02580118  RH  042%=      5-min Rain = 0
KHA2 141647Z 04014KT 26/12 A3027 RMK A01 T02570120  RH  043%=      5-min Rain = 0
KHA2 141648Z 04012KT 26/12 A3027 RMK A01 T02550120  RH  043%=      5-min Rain = 0
KHA2 141649Z 04012KT 26/12 A3027 RMK A01 T02550122  RH  043%=      5-min Rain = 0
KHA2 141650Z 03009KT 26/12 A3027 RMK A01 T02570121  RH  043%=      5-min Rain = 0
KHA2 141651Z 03006KT 26/12 A3026 RMK A01 T02570121  RH  043%=      5-min Rain = 0
KHA2 141652Z 03008KT 26/12 A3026 RMK A01 T02580123  RH  043%=      5-min Rain = 0
KHA2 141653Z 04009KT 26/12 A3027 RMK A01 T02600124  RH  043%=      5-min Rain = 0
KHA2 141654Z 04009KT 26/12 A3027 RMK A01 T02620124  RH  042%=      5-min Rain = 0
KHA2 141655Z 02011KT 27/13 A3027 RMK A01 T02650126  RH  042%=      5-min Rain = 0
KHA2 141656Z 03012KT 27/13 A3027 RMK A01 T02680126  RH  041%=      5-min Rain = 0
KHA2 141657Z 02011KT 27/12 A3027 RMK A01 T02680124  RH  041%=      5-min Rain = 0
KHA2 141658Z 02012KT 27/12 A3027 RMK A01 T02660123  RH  041%=      5-min Rain = 0
KHA2 141659Z 04008KT 26/12 A3027 RMK A01 T02640122  RH  041%=      5-min Rain = 0
KHA2 141700Z 02009KT 27/12 A3026 RMK A01 T02650123  RH  041%=      5-min Rain = 0
KHA2 141701Z 02013KT 27/13 A3026 RMK A01 T02690125  RH  041%=      5-min Rain = 0
KHA2 141702Z 03013KT 27/12 A3026 RMK A01 T02700123  RH  040%=      5-min Rain = 0
KHA2 141703Z 03009KT 27/12 A3026 RMK A01 T02690122  RH  040%=      5-min Rain = 0
KHA2 141704Z 03010KT 27/13 A3027 RMK A01 T02690126  RH  041%=      5-min Rain = 0
KHA2 141705Z 02009G14KT 27/12 A3027 RMK A01 T02710123  RH  040%=      5-min Rain = 0
KHA2 141706Z 01017KT 27/13 A3027 RMK A01 T02710125  RH  040%=      5-min Rain = 0
KHA2 141707Z 02017KT 27/13 A3027 RMK A01 T02710125  RH  040%=      5-min Rain = 0
KHA2 141708Z 02013KT 27/13 A3027 RMK A01 T02710125  RH  040%=      5-min Rain = 0
KHA2 141709Z 02012KT 27/12 A3027 RMK A01 T02700124  RH  041%=      5-min Rain = 0
KHA2 141710Z 02012G24KT 27/13 A3027 RMK A01 T02680125  RH  041%=      5-min Rain = 0
KHA2 141711Z 03015KT 27/13 A3027 RMK A01 T02690126  RH  041%=      5-min Rain = 0
KHA2 141712Z 04015KT 27/12 A3027 RMK A01 T02710124  RH  040%=      5-min Rain = 0
KHA2 141713Z 03015G20KT 27/13 A3027 RMK A01 T02700126  RH  041%=      5-min Rain = 0
KHA2 141714Z 02016KT 27/13 A3027 RMK A01 T02720126  RH  040%=      5-min Rain = 0
KHA2 141715Z 02017KT 27/13 A3027 RMK A01 T02720125  RH  040%=      5-min Rain = 0
KHA2 141716Z 03018G23KT 27/13 A3027 RMK A01 T02730128  RH  041%=      5-min Rain = 0
KHA2 141717Z 01016KT 27/13 A3027 RMK A01 T02720126  RH  040%=      5-min Rain = 0
KHA2 141718Z 02011KT 27/13 A3027 RMK A01 T02690127  RH  041%=      5-min Rain = 0
KHA2 141719Z 03014KT 27/13 A3027 RMK A01 T02690129  RH  042%=      5-min Rain = 0
KHA2 141720Z 03017KT 27/13 A3027 RMK A01 T02710127  RH  041%=      5-min Rain = 0
KHA2 141721Z 03018KT 27/13 A3027 RMK A01 T02710127  RH  041%=      5-min Rain = 0
KHA2 141722Z 03016KT 27/13 A3027 RMK A01 T02710125  RH  040%=      5-min Rain = 0
KHA2 141723Z 03012KT 27/12 A3027 RMK A01 T02690123  RH  040%=      5-min Rain = 0
KHA2 141724Z 02015KT 27/12 A3027 RMK A01 T02670124  RH  041%=      5-min Rain = 0
KHA2 141725Z 02017KT 27/13 A3027 RMK A01 T02690127  RH  042%=      5-min Rain = 0
KHA2 141726Z 03014G20KT 27/13 A3027 RMK A01 T02700126  RH  041%=      5-min Rain = 0
KHA2 141727Z 04010KT 27/13 A3027 RMK A01 T02690127  RH  041%=      5-min Rain = 0
KHA2 141728Z 03009KT 27/13 A3026 RMK A01 T02690125  RH  041%=      5-min Rain = 0
KHA2 141729Z 36010KT 27/13 A3026 RMK A01 T02700125  RH  041%=      5-min Rain = 0
KHA2 141730Z 04012KT 27/12 A3026 RMK A01 T02700124  RH  040%=      5-min Rain = 0
KHA2 141731Z 06013KT 27/12 A3026 RMK A01 T02710123  RH  040%=      5-min Rain = 0
KHA2 141732Z 04018KT 27/13 A3026 RMK A01 T02720125  RH  040%=      5-min Rain = 0
KHA2 141733Z 04014KT 27/12 A3027 RMK A01 T02720122  RH  039%=      5-min Rain = 0
KHA2 141734Z 05009KT 27/12 A3027 RMK A01 T02690122  RH  040%=      5-min Rain = 0
KHA2 141735Z 04009G14KT 27/12 A3026 RMK A01 T02680122  RH  040%=      5-min Rain = 0
KHA2 141736Z 04014KT 27/12 A3026 RMK A01 T02690123  RH  040%=      5-min Rain = 0
KHA2 141737Z 04012KT 27/12 A3026 RMK A01 T02720122  RH  039%=      5-min Rain = 0
KHA2 141738Z 03010KT 27/12 A3026 RMK A01 T02710121  RH  039%=      5-min Rain = 0
KHA2 141739Z 04017KT 27/12 A3026 RMK A01 T02710123  RH  040%=      5-min Rain = 0
KHA2 141740Z 04015KT 27/12 A3026 RMK A01 T02730122  RH  039%=      5-min Rain = 0
KHA2 141741Z 05012KT 27/12 A3026 RMK A01 T02730122  RH  039%=      5-min Rain = 0
KHA2 141742Z 04011KT 27/12 A3026 RMK A01 T02720124  RH  040%=      5-min Rain = 0
KHA2 141743Z 03013KT 28/12 A3026 RMK A01 T02760124  RH  039%=      5-min Rain = 0
KHA2 141744Z 02015KT 28/12 A3026 RMK A01 T02750123  RH  039%=      5-min Rain = 0
KHA2 141745Z 02015KT 28/12 A3026 RMK A01 T02750123  RH  039%=      5-min Rain = 0
KHA2 141746Z 04017KT 28/12 A3026 RMK A01 T02770124  RH  039%=      5-min Rain = 0
KHA2 141747Z 05013KT 28/12 A3026 RMK A01 T02770120  RH  038%=      5-min Rain = 0
KHA2 141748Z 05011KT 28/12 A3026 RMK A01 T02750122  RH  039%=      5-min Rain = 0
KHA2 141749Z 04012KT 28/12 A3026 RMK A01 T02780122  RH  038%=      5-min Rain = 0
KHA2 141750Z 07011KT 28/12 A3026 RMK A01 T02760122  RH  038%=      5-min Rain = 0
KHA2 141751Z 06009KT 28/12 A3026 RMK A01 T02760124  RH  039%=      5-min Rain = 0
KHA2 141752Z 03013KT 28/13 A3026 RMK A01 T02800125  RH  038%=      5-min Rain = 0
KHA2 141753Z 02013KT 28/12 A3026 RMK A01 T02790118  RH  037%=      5-min Rain = 0
KHA2 141754Z 03012KT 28/12 A3026 RMK A01 T02770124  RH  039%=      5-min Rain = 0
KHA2 141755Z 05013KT 28/12 A3026 RMK A01 T02800123  RH  038%=      5-min Rain = 0
KHA2 141756Z 05009KT 28/12 A3026 RMK A01 T02790120  RH  037%=      5-min Rain = 0
KHA2 141757Z 04009KT 28/12 A3026 RMK A01 T02760122  RH  038%=      5-min Rain = 0
KHA2 141758Z 05011KT 28/12 A3026 RMK A01 T02760123  RH  039%=      5-min Rain = 0
KHA2 141759Z 05013KT 28/12 A3025 RMK A01 T02780124  RH  038%=      5-min Rain = 0
KHA2 141800Z 05010KT 28/12 A3025 RMK A01 T02800122  RH  038%=      5-min Rain = 0
KHA2 141801Z 06011KT 28/12 A3025 RMK A01 T02840124  RH  037%=      5-min Rain = 0
KHA2 141802Z 07009KT 29/12 A3025 RMK A01 T02850122  RH  037%=      5-min Rain = 0
KHA2 141803Z 05008KT 28/12 A3025 RMK A01 T02820122  RH  037%=      5-min Rain = 0
KHA2 141804Z 04011KT 28/13 A3025 RMK A01 T02800125  RH  038%=      5-min Rain = 0
KHA2 141805Z 04014KT 28/12 A3025 RMK A01 T02810124  RH  038%=      5-min Rain = 0
KHA2 141806Z 03010KT 28/12 A3025 RMK A01 T02800123  RH  038%=      5-min Rain = 0
KHA2 141807Z 03012G17KT 27/12 A3025 RMK A01 T02740122  RH  039%=      5-min Rain = 0
KHA2 141808Z 03012KT 28/12 A3025 RMK A01 T02750124  RH  039%=      5-min Rain = 0
KHA2 141809Z 02013KT 28/12 A3025 RMK A01 T02790124  RH  038%=      5-min Rain = 0
KHA2 141810Z 03009KT 28/12 A3025 RMK A01 T02790124  RH  038%=      5-min Rain = 0
KHA2 141811Z 04010KT 28/13 A3025 RMK A01 T02790125  RH  039%=      5-min Rain = 0
KHA2 141812Z 06010G15KT 28/13 A3025 RMK A01 T02830126  RH  038%=      5-min Rain = 0
KHA2 141813Z 04014G20KT 28/12 A3025 RMK A01 T02840124  RH  037%=      5-min Rain = 0
KHA2 141814Z 05015KT 29/12 A3025 RMK A01 T02850124  RH  037%=      5-min Rain = 0
KHA2 141815Z 06012KT 28/12 A3025 RMK A01 T02840120  RH  036%=      5-min Rain = 0
KHA2 141816Z 04009KT 28/12 A3025 RMK A01 T02800120  RH  037%=      5-min Rain = 0
KHA2 141817Z 05010G15KT 28/12 A3025 RMK A01 T02800121  RH  037%=      5-min Rain = 0
KHA2 141818Z 07011KT 28/12 A3025 RMK A01 T02810119  RH  037%=      5-min Rain = 0
KHA2 141819Z 07008KT 28/12 A3025 RMK A01 T02800119  RH  037%=      5-min Rain = 0
KHA2 141820Z 10005KT 28/12 A3025 RMK A01 T02790120  RH  037%=      5-min Rain = 0
KHA2 141821Z 05006KT 28/12 A3025 RMK A01 T02790121  RH  037%=      5-min Rain = 0
KHA2 141822Z 05009KT 28/12 A3025 RMK A01 T02810122  RH  037%=      5-min Rain = 0
KHA2 141823Z 06009KT 28/12 A3025 RMK A01 T02820124  RH  038%=      5-min Rain = 0
KHA2 141824Z 05010KT 28/12 A3025 RMK A01 T02820122  RH  037%=      5-min Rain = 0
KHA2 141825Z 06009KT 28/13 A3025 RMK A01 T02820125  RH  038%=      5-min Rain = 0
KHA2 141826Z 06005KT 28/12 A3025 RMK A01 T02820124  RH  038%=      5-min Rain = 0
KHA2 141827Z 04009KT 28/13 A3025 RMK A01 T02830127  RH  038%=      5-min Rain = 0
KHA2 141828Z 07008G13KT 29/13 A3025 RMK A01 T02870125  RH  037%=      5-min Rain = 0
KHA2 141829Z 06008KT 29/12 A3025 RMK A01 T02850123  RH  037%=      5-min Rain = 0
KHA2 141830Z 07008KT 28/12 A3025 RMK A01 T02820123  RH  037%=      5-min Rain = 0
KHA2 141831Z 07009KT 28/13 A3025 RMK A01 T02800125  RH  038%=      5-min Rain = 0
KHA2 141832Z 07007KT 28/13 A3025 RMK A01 T02800125  RH  038%=      5-min Rain = 0
KHA2 141833Z 07007KT 28/13 A3025 RMK A01 T02800125  RH  038%=      5-min Rain = 0
KHA2 141834Z 07006KT 28/12 A3025 RMK A01 T02800124  RH  038%=      5-min Rain = 0
KHA2 141835Z 06005KT 28/13 A3024 RMK A01 T02810125  RH  038%=      5-min Rain = 0
KHA2 141836Z 03007KT 28/13 A3024 RMK A01 T02830126  RH  038%=      5-min Rain = 0
KHA2 141837Z 07005KT 28/13 A3024 RMK A01 T02840126  RH  038%=      5-min Rain = 0
KHA2 141838Z 09010KT 29/13 A3024 RMK A01 T02850129  RH  038%=      5-min Rain = 0
KHA2 141839Z 08010KT 29/13 A3024 RMK A01 T02860128  RH  038%=      5-min Rain = 0
KHA2 141840Z 08007KT 29/13 A3024 RMK A01 T02860126  RH  037%=      5-min Rain = 0
KHA2 141841Z 09007KT 28/12 A3024 RMK A01 T02840124  RH  037%=      5-min Rain = 0
KHA2 141842Z 09008KT 28/13 A3024 RMK A01 T02820126  RH  038%=      5-min Rain = 0
KHA2 141843Z 07008KT 29/13 A3024 RMK A01 T02850128  RH  038%=      5-min Rain = 0
KHA2 141844Z 11005KT 29/13 A3024 RMK A01 T02850125  RH  037%=      5-min Rain = 0
KHA2 141845Z 11008KT 28/12 A3024 RMK A01 T02840123  RH  037%=      5-min Rain = 0
KHA2 141846Z 12008KT 28/12 A3023 RMK A01 T02840124  RH  037%=      5-min Rain = 0
KHA2 141847Z 12007KT 29/12 A3023 RMK A01 T02860124  RH  037%=      5-min Rain = 0
KHA2 141848Z 13006KT 29/12 A3023 RMK A01 T02880122  RH  036%=      5-min Rain = 0
KHA2 141849Z 12003KT 29/12 A3023 RMK A01 T02850121  RH  036%=      5-min Rain = 0
KHA2 141850Z 13004KT 28/12 A3023 RMK A01 T02840122  RH  037%=      5-min Rain = 0
KHA2 141851Z 11002KT 29/12 A3023 RMK A01 T02850121  RH  036%=      5-min Rain = 0
KHA2 141852Z 03004KT 29/12 A3023 RMK A01 T02860123  RH  036%=      5-min Rain = 0
KHA2 141853Z 36003KT 29/12 A3023 RMK A01 T02900122  RH  035%=      5-min Rain = 0
KHA2 141854Z 34001KT 29/12 A3023 RMK A01 T02900122  RH  035%=      5-min Rain = 0
KHA2 141855Z 09002KT 29/12 A3023 RMK A01 T02920122  RH  035%=      5-min Rain = 0
KHA2 141856Z 10006KT 29/12 A3023 RMK A01 T02940124  RH  035%=      5-min Rain = 0
KHA2 141857Z 10006KT 29/12 A3023 RMK A01 T02930122  RH  035%=      5-min Rain = 0
KHA2 141858Z 07005KT 29/12 A3023 RMK A01 T02920122  RH  035%=      5-min Rain = 0
KHA2 141859Z 08001KT 29/12 A3022 RMK A01 T02910120  RH  035%=      5-min Rain = 0
KHA2 141900Z 05001KT 29/12 A3022 RMK A01 T02910120  RH  035%=      5-min Rain = 0
KHA2 141901Z 02002KT 29/12 A3022 RMK A01 T02910120  RH  035%=      5-min Rain = 0
KHA2 141902Z 05001KT 29/12 A3022 RMK A01 T02920120  RH  034%=      5-min Rain = 0
KHA2 141903Z 13005KT 29/12 A3022 RMK A01 T02940122  RH  035%=      5-min Rain = 0
KHA2 141904Z 13008KT 30/12 A3022 RMK A01 T02970123  RH  034%=      5-min Rain = 0
KHA2 141905Z 14009KT 30/12 A3022 RMK A01 T02950120  RH  034%=      5-min Rain = 0
KHA2 141906Z 16008KT 29/12 A3021 RMK A01 T02940121  RH  034%=      5-min Rain = 0
KHA2 141907Z 15008KT 29/12 A3021 RMK A01 T02940122  RH  035%=      5-min Rain = 0
KHA2 141908Z 15007KT 30/12 A3021 RMK A01 T02950122  RH  034%=      5-min Rain = 0
KHA2 141909Z 16008KT 29/12 A3021 RMK A01 T02940121  RH  034%=      5-min Rain = 0
KHA2 141910Z 16007KT 29/12 A3021 RMK A01 T02930121  RH  034%=      5-min Rain = 0
KHA2 141911Z 15006KT 30/12 A3021 RMK A01 T02950121  RH  034%=      5-min Rain = 0
KHA2 141912Z 16006KT 29/12 A3021 RMK A01 T02940120  RH  034%=      5-min Rain = 0
KHA2 141913Z 17004KT 29/12 A3021 RMK A01 T02920118  RH  034%=      5-min Rain = 0
KHA2 141914Z 22004KT 29/12 A3021 RMK A01 T02900118  RH  035%=      5-min Rain = 0
KHA2 141915Z 23007KT 29/12 A3021 RMK A01 T02910118  RH  034%=      5-min Rain = 0
KHA2 141916Z 24007KT 29/12 A3021 RMK A01 T02930121  RH  034%=      5-min Rain = 0
KHA2 141917Z 24006KT 29/12 A3021 RMK A01 T02930120  RH  034%=      5-min Rain = 0
KHA2 141918Z 22003KT 29/12 A3021 RMK A01 T02920119  RH  034%=      5-min Rain = 0
KHA2 141919Z 14003KT 29/12 A3021 RMK A01 T02930119  RH  034%=      5-min Rain = 0
KHA2 141920Z 09004KT 29/12 A3021 RMK A01 T02940122  RH  035%=      5-min Rain = 0
KHA2 141921Z 13001KT 29/12 A3021 RMK A01 T02940120  RH  034%=      5-min Rain = 0
KHA2 141922Z 20001KT 29/12 A3021 RMK A01 T02940120  RH  034%=      5-min Rain = 0
KHA2 141923Z 08003KT 30/12 A3021 RMK A01 T02950120  RH  034%=      5-min Rain = 0
KHA2 141924Z 08003KT 30/12 A3021 RMK A01 T02960119  RH  034%=      5-min Rain = 0
KHA2 141925Z 11003KT 30/12 A3021 RMK A01 T02960121  RH  034%=      5-min Rain = 0
KHA2 141926Z 11003KT 30/12 A3021 RMK A01 T02980120  RH  033%=      5-min Rain = 0
KHA2 141927Z 12004KT 30/12 A302 RMK A01 T02970120  RH  034%=      5-min Rain = 0
KHA2 141928Z 12003KT 30/12 A302 RMK A01 T03010122  RH  033%=      5-min Rain = 0
KHA2 141929Z 11003KT 30/12 A302 RMK A01 T03030120  RH  032%=      5-min Rain = 0
KHA2 141930Z 11004KT 30/12 A302 RMK A01 T03020119  RH  032%=      5-min Rain = 0
KHA2 141931Z 16006KT 30/12 A302 RMK A01 T03020118  RH  032%=      5-min Rain = 0
KHA2 141932Z 17008KT 30/12 A3019 RMK A01 T03020115  RH  032%=      5-min Rain = 0
KHA2 141933Z 15010KT 31/12 A3019 RMK A01 T03070117  RH  031%=      5-min Rain = 0
KHA2 141934Z 15008KT 31/11 A3019 RMK A01 T03080114  RH  030%=      5-min Rain = 0
KHA2 141935Z 16009KT 31/11 A3019 RMK A01 T03060114  RH  031%=      5-min Rain = 0
KHA2 141936Z 19009KT 31/12 A3019 RMK A01 T03110116  RH  030%=      5-min Rain = 0
KHA2 141937Z 20009KT 31/11 A3019 RMK A01 T03100114  RH  030%=      5-min Rain = 0
KHA2 141938Z 20009KT 31/11 A3019 RMK A01 T03120114  RH  030%=      5-min Rain = 0
KHA2 141939Z 20006KT 31/11 A3019 RMK A01 T03120112  RH  029%=      5-min Rain = 0
KHA2 141940Z 20001KT 31/11 A3019 RMK A01 T03090110  RH  029%=      5-min Rain = 0
KHA2 141941Z 16002KT 31/11 A3019 RMK A01 T03070112  RH  030%=      5-min Rain = 0
KHA2 141942Z 19004KT 31/11 A3019 RMK A01 T03080110  RH  029%=      5-min Rain = 0
KHA2 141943Z 22004KT 31/11 A302 RMK A01 T03080108  RH  029%=      5-min Rain = 0
KHA2 141944Z 23003KT 31/11 A302 RMK A01 T03090107  RH  029%=      5-min Rain = 0
KHA2 141945Z 26000KT 31/11 A302 RMK A01 T03090107  RH  029%=      5-min Rain = 0
KHA2 141946Z 34000KT 31/11 A302 RMK A01 T03090107  RH  029%=      5-min Rain = 0
KHA2 141947Z 08001KT 31/11 A302 RMK A01 T03100109  RH  029%=      5-min Rain = 0
KHA2 141948Z 14004KT 31/11 A302 RMK A01 T03130113  RH  029%=      5-min Rain = 0
KHA2 141949Z 08007KT 32/12 A302 RMK A01 T03150121  RH  030%=      5-min Rain = 0
KHA2 141950Z 08008KT 32/12 A302 RMK A01 T03150117  RH  030%=      5-min Rain = 0
KHA2 141951Z 07007KT 31/12 A302 RMK A01 T03120116  RH  030%=      5-min Rain = 0
KHA2 141952Z 08004KT 31/11 A302 RMK A01 T03100114  RH  030%=      5-min Rain = 0
KHA2 141953Z 08003KT 31/11 A302 RMK A01 T03090114  RH  030%=      5-min Rain = 0
KHA2 141954Z 11005KT 31/11 A302 RMK A01 T03090114  RH  030%=      5-min Rain = 0
KHA2 141955Z 11004KT 31/11 A302 RMK A01 T03080112  RH  030%=      5-min Rain = 0
KHA2 141956Z 03002KT 31/11 A302 RMK A01 T03060112  RH  030%=      5-min Rain = 0
KHA2 141957Z 35001KT 31/11 A302 RMK A01 T03050114  RH  031%=      5-min Rain = 0
KHA2 141958Z 10001G7KT 31/12 A302 RMK A01 T03070115  RH  031%=      5-min Rain = 0
KHA2 141959Z 11006KT 31/12 A302 RMK A01 T03100118  RH  031%=      5-min Rain = 0
KHA2 142000Z 07005KT 31/12 A302 RMK A01 T03100120  RH  031%=      5-min Rain = 0
KHA2 142001Z 08005KT 31/12 A302 RMK A01 T03110117  RH  030%=      5-min Rain = 0
KHA2 142002Z 06006KT 31/12 A3019 RMK A01 T03110117  RH  030%=      5-min Rain = 0
KHA2 142003Z 07009KT 31/12 A3019 RMK A01 T03140119  RH  030%=      5-min Rain = 0
KHA2 142004Z 04009KT 32/12 A3019 RMK A01 T03170118  RH  030%=      5-min Rain = 0
KHA2 142005Z 03007KT 32/12 A3019 RMK A01 T03170116  RH  029%=      5-min Rain = 0
KHA2 142006Z 05008KT 32/12 A3019 RMK A01 T03150116  RH  030%=      5-min Rain = 0
KHA2 142007Z 04007KT 31/11 A3019 RMK A01 T03120114  RH  030%=      5-min Rain = 0
KHA2 142008Z 05007KT 31/12 A3019 RMK A01 T03110115  RH  030%=      5-min Rain = 0
KHA2 142009Z 02005KT 31/11 A3019 RMK A01 T03110114  RH  030%=      5-min Rain = 0
KHA2 142010Z 02005KT 31/11 A3019 RMK A01 T03110114  RH  030%=      5-min Rain = 0
KHA2 142011Z 35002KT 31/11 A3019 RMK A01 T03110113  RH  030%=      5-min Rain = 0
KHA2 142012Z 10002KT 31/12 A3019 RMK A01 T03110115  RH  030%=      5-min Rain = 0
KHA2 142013Z 13005KT 31/12 A3019 RMK A01 T03130119  RH  030%=      5-min Rain = 0
KHA2 142014Z 13005KT 32/12 A3019 RMK A01 T03150116  RH  030%=      5-min Rain = 0
KHA2 142015Z 14005KT 32/12 A3019 RMK A01 T03170118  RH  030%=      5-min Rain = 0
KHA2 142016Z 11007KT 32/12 A3019 RMK A01 T03170118  RH  030%=      5-min Rain = 0
KHA2 142017Z 11010KT 32/12 A3019 RMK A01 T03200119  RH  029%=      5-min Rain = 0
KHA2 142018Z 12007KT 32/12 A3019 RMK A01 T03180116  RH  029%=      5-min Rain = 0
KHA2 142019Z 15003KT 32/12 A3019 RMK A01 T03160115  RH  029%=      5-min Rain = 0
KHA2 142020Z 17002KT 32/12 A3019 RMK A01 T03160115  RH  029%=      5-min Rain = 0
KHA2 142021Z 04003KT 32/12 A3019 RMK A01 T03170116  RH  029%=      5-min Rain = 0
KHA2 142022Z 07006G11KT 32/12 A3019 RMK A01 T03170118  RH  030%=      5-min Rain = 0
KHA2 142023Z 08010KT 32/12 A3019 RMK A01 T03180120  RH  030%=      5-min Rain = 0
KHA2 142024Z 08011KT 32/12 A3019 RMK A01 T03180119  RH  030%=      5-min Rain = 0
KHA2 142025Z 06008KT 32/12 A3019 RMK A01 T03160117  RH  029%=      5-min Rain = 0
KHA2 142026Z 06010KT 32/12 A3018 RMK A01 T03150116  RH  030%=      5-min Rain = 0
KHA2 142027Z 05006KT 31/12 A3019 RMK A01 T03140115  RH  030%=      5-min Rain = 0
KHA2 142028Z 04005KT 31/11 A3019 RMK A01 T03140114  RH  029%=      5-min Rain = 0
KHA2 142029Z 05007KT 32/11 A3019 RMK A01 T03150114  RH  029%=      5-min Rain = 0
KHA2 142030Z 10008KT 32/12 A3019 RMK A01 T03160116  RH  029%=      5-min Rain = 0
KHA2 142031Z 11005KT 32/11 A3019 RMK A01 T03150112  RH  029%=      5-min Rain = 0
KHA2 142032Z 14002KT 31/11 A3019 RMK A01 T03120110  RH  029%=      5-min Rain = 0
KHA2 142033Z 13003KT 31/11 A3019 RMK A01 T03110111  RH  029%=      5-min Rain = 0
KHA2 142034Z 17002KT 31/11 A3019 RMK A01 T03120111  RH  029%=      5-min Rain = 0
KHA2 142035Z 20002KT 31/11 A3018 RMK A01 T03130113  RH  029%=      5-min Rain = 0
KHA2 142036Z 08002KT 32/11 A3018 RMK A01 T03180114  RH  029%=      5-min Rain = 0
KHA2 142037Z 02004KT 32/11 A3018 RMK A01 T03210113  RH  028%=      5-min Rain = 0
KHA2 142038Z 01003KT 32/11 A3018 RMK A01 T03210113  RH  028%=      5-min Rain = 0
KHA2 142039Z 06004KT 32/11 A3018 RMK A01 T03210112  RH  028%=      5-min Rain = 0
KHA2 142040Z 06005KT 32/11 A3018 RMK A01 T03220110  RH  027%=      5-min Rain = 0
KHA2 142041Z 08004KT 32/11 A3018 RMK A01 T03200110  RH  028%=      5-min Rain = 0
KHA2 142042Z 07004KT 32/11 A3018 RMK A01 T03180109  RH  028%=      5-min Rain = 0
KHA2 142043Z 05004KT 32/11 A3018 RMK A01 T03170109  RH  028%=      5-min Rain = 0
KHA2 142044Z 06003KT 32/11 A3018 RMK A01 T03170108  RH  028%=      5-min Rain = 0
KHA2 142045Z 08003KT 32/11 A3018 RMK A01 T03150107  RH  028%=      5-min Rain = 0
KHA2 142046Z 05003KT 31/11 A3018 RMK A01 T03130108  RH  028%=      5-min Rain = 0
KHA2 142047Z 05004KT 31/11 A3018 RMK A01 T03140109  RH  028%=      5-min Rain = 0
KHA2 142048Z 06003KT 32/11 A3018 RMK A01 T03160109  RH  028%=      5-min Rain = 0
KHA2 142049Z 36003KT 32/11 A3018 RMK A01 T03190111  RH  028%=      5-min Rain = 0
KHA2 142050Z 34003KT 32/11 A3018 RMK A01 T03220109  RH  027%=      5-min Rain = 0
KHA2 142051Z 33003KT 32/11 A3018 RMK A01 T03200109  RH  027%=      5-min Rain = 0
KHA2 142052Z 14001KT 32/11 A3018 RMK A01 T03200109  RH  027%=      5-min Rain = 0
KHA2 142053Z 14002KT 32/11 A3018 RMK A01 T03210110  RH  028%=      5-min Rain = 0
KHA2 142054Z 14003KT 32/11 A3018 RMK A01 T03210112  RH  028%=      5-min Rain = 0
KHA2 142055Z 13005KT 32/11 A3018 RMK A01 T03220113  RH  028%=      5-min Rain = 0
KHA2 142056Z 11003KT 32/11 A3018 RMK A01 T03230111  RH  027%=      5-min Rain = 0
KHA2 142057Z 05002KT 32/11 A3017 RMK A01 T03190109  RH  028%=      5-min Rain = 0
KHA2 142058Z 19003KT 32/11 A3017 RMK A01 T03190113  RH  028%=      5-min Rain = 0
KHA2 142059Z 17002KT 32/11 A3017 RMK A01 T03230113  RH  028%=      5-min Rain = 0
KHA2 142100Z 12005KT 32/11 A3017 RMK A01 T03240112  RH  027%=      5-min Rain = 0
KHA2 142101Z 11007KT 32/11 A3017 RMK A01 T03220113  RH  028%=      5-min Rain = 0
KHA2 142102Z 07010KT 32/12 A3017 RMK A01 T03230118  RH  029%=      5-min Rain = 0
KHA2 142103Z 06008KT 32/11 A3017 RMK A01 T03240114  RH  028%=      5-min Rain = 0
KHA2 142104Z 03005KT 32/11 A3017 RMK A01 T03200113  RH  028%=      5-min Rain = 0
KHA2 142105Z 07006KT 32/12 A3017 RMK A01 T03190116  RH  029%=      5-min Rain = 0
KHA2 142106Z 06006KT 32/12 A3017 RMK A01 T03200115  RH  029%=      5-min Rain = 0
KHA2 142107Z 02004KT 32/11 A3017 RMK A01 T03170113  RH  029%=      5-min Rain = 0
KHA2 142108Z 32001KT 32/11 A3017 RMK A01 T03150114  RH  029%=      5-min Rain = 0
KHA2 142109Z 12004KT 32/11 A3017 RMK A01 T03150114  RH  029%=      5-min Rain = 0
KHA2 142110Z 12006KT 32/11 A3017 RMK A01 T03160114  RH  029%=      5-min Rain = 0
KHA2 142111Z 14007KT 32/12 A3017 RMK A01 T03170115  RH  029%=      5-min Rain = 0
KHA2 142112Z 13006KT 32/11 A3017 RMK A01 T03180114  RH  029%=      5-min Rain = 0
KHA2 142113Z 10009KT 32/12 A3017 RMK A01 T03190116  RH  029%=      5-min Rain = 0
KHA2 142114Z 11006KT 32/12 A3017 RMK A01 T03210117  RH  029%=      5-min Rain = 0
KHA2 142115Z 11004KT 32/11 A3017 RMK A01 T03220114  RH  028%=      5-min Rain = 0
KHA2 142116Z 09005KT 32/12 A3017 RMK A01 T03230115  RH  028%=      5-min Rain = 0
KHA2 142117Z 10006KT 32/12 A3017 RMK A01 T03230115  RH  028%=      5-min Rain = 0
KHA2 142118Z 08004KT 32/11 A3017 RMK A01 T03200112  RH  028%=      5-min Rain = 0
KHA2 142119Z 10008KT 32/12 A3016 RMK A01 T03200116  RH  029%=      5-min Rain = 0
KHA2 142120Z 08007KT 32/12 A3016 RMK A01 T03240116  RH  028%=      5-min Rain = 0
KHA2 142121Z 08008KT 33/12 A3016 RMK A01 T03250117  RH  028%=      5-min Rain = 0
KHA2 142122Z 09009KT 32/11 A3016 RMK A01 T03230113  RH  028%=      5-min Rain = 0
KHA2 142123Z 09007KT 32/11 A3016 RMK A01 T03200111  RH  028%=      5-min Rain = 0
KHA2 142124Z 10005KT 32/11 A3016 RMK A01 T03200114  RH  028%=      5-min Rain = 0
KHA2 142125Z 01007KT 32/11 A3016 RMK A01 T03230112  RH  027%=      5-min Rain = 0
KHA2 142126Z 36009KT 33/11 A3016 RMK A01 T03250110  RH  027%=      5-min Rain = 0
KHA2 142127Z 35006KT 33/11 A3016 RMK A01 T03250111  RH  027%=      5-min Rain = 0
KHA2 142128Z 01005KT 33/11 A3016 RMK A01 T03250110  RH  027%=      5-min Rain = 0
KHA2 142129Z 01004KT 32/11 A3016 RMK A01 T03230109  RH  027%=      5-min Rain = 0
KHA2 142130Z 04007KT 32/11 A3016 RMK A01 T03220110  RH  027%=      5-min Rain = 0
KHA2 142131Z 03005KT 33/11 A3016 RMK A01 T03250112  RH  027%=      5-min Rain = 0
KHA2 142132Z 03005KT 33/11 A3016 RMK A01 T03290111  RH  026%=      5-min Rain = 0
KHA2 142133Z 34004KT 33/11 A3016 RMK A01 T03270108  RH  026%=      5-min Rain = 0
KHA2 142134Z 05002KT 32/11 A3015 RMK A01 T03240109  RH  027%=      5-min Rain = 0
KHA2 142135Z 04006KT 32/11 A3015 RMK A01 T03230109  RH  027%=      5-min Rain = 0
KHA2 142136Z 05008KT 33/11 A3015 RMK A01 T03250111  RH  027%=      5-min Rain = 0
KHA2 142137Z 07008KT 33/11 A3015 RMK A01 T03260110  RH  027%=      5-min Rain = 0
KHA2 142138Z 08008KT 33/11 A3015 RMK A01 T03260112  RH  027%=      5-min Rain = 0
KHA2 142139Z 06008KT 33/11 A3015 RMK A01 T03260111  RH  027%=      5-min Rain = 0
KHA2 142140Z 05005KT 33/11 A3015 RMK A01 T03260109  RH  026%=      5-min Rain = 0
KHA2 142141Z 05006KT 32/11 A3015 RMK A01 T03240108  RH  027%=      5-min Rain = 0
KHA2 142142Z 03004KT 32/11 A3015 RMK A01 T03240109  RH  027%=      5-min Rain = 0
KHA2 142143Z 05005KT 33/11 A3015 RMK A01 T03250109  RH  027%=      5-min Rain = 0
KHA2 142144Z 02005KT 33/11 A3015 RMK A01 T03250107  RH  026%=      5-min Rain = 0
KHA2 142145Z 04008KT 33/11 A3015 RMK A01 T03260111  RH  027%=      5-min Rain = 0
KHA2 142146Z 06007KT 33/11 A3015 RMK A01 T03290110  RH  026%=      5-min Rain = 0
KHA2 142147Z 07006KT 33/11 A3015 RMK A01 T03290110  RH  026%=      5-min Rain = 0
KHA2 142148Z 08005KT 33/11 A3015 RMK A01 T03270108  RH  026%=      5-min Rain = 0
KHA2 142149Z 06008KT 33/11 A3015 RMK A01 T03250111  RH  027%=      5-min Rain = 0
KHA2 142150Z 06006KT 33/11 A3015 RMK A01 T03260109  RH  026%=      5-min Rain = 0
KHA2 142151Z 08005KT 32/11 A3015 RMK A01 T03230109  RH  027%=      5-min Rain = 0
KHA2 142152Z 07005KT 32/11 A3015 RMK A01 T03220109  RH  027%=      5-min Rain = 0
KHA2 142153Z 06006KT 32/11 A3015 RMK A01 T03210109  RH  027%=      5-min Rain = 0
KHA2 142154Z 07005KT 32/11 A3015 RMK A01 T03230109  RH  027%=      5-min Rain = 0
KHA2 142155Z 07007KT 32/11 A3015 RMK A01 T03240109  RH  027%=      5-min Rain = 0
KHA2 142156Z 11007KT 32/11 A3014 RMK A01 T03240111  RH  027%=      5-min Rain = 0
KHA2 142157Z 11006KT 32/11 A3014 RMK A01 T03240110  RH  027%=      5-min Rain = 0
KHA2 142158Z 09005KT 32/11 A3014 RMK A01 T03230109  RH  027%=      5-min Rain = 0
KHA2 142159Z 11004KT 32/11 A3014 RMK A01 T03230110  RH  027%=      5-min Rain = 0
KHA2 142200Z 07005KT 32/11 A3014 RMK A01 T03240110  RH  027%=      5-min Rain = 0
KHA2 142201Z 10003KT 33/11 A3014 RMK A01 T03250110  RH  027%=      5-min Rain = 0
KHA2 142202Z 08005KT 33/11 A3014 RMK A01 T03250113  RH  027%=      5-min Rain = 0
KHA2 142203Z 08006KT 33/11 A3014 RMK A01 T03260114  RH  027%=      5-min Rain = 0
KHA2 142204Z 09005KT 33/11 A3014 RMK A01 T03280113  RH  027%=      5-min Rain = 0
KHA2 142205Z 12005KT 33/11 A3014 RMK A01 T03270111  RH  027%=      5-min Rain = 0
KHA2 142206Z 12006KT 33/11 A3014 RMK A01 T03260109  RH  027%=      5-min Rain = 0
KHA2 142207Z 11005KT 33/11 A3014 RMK A01 T03250108  RH  027%=      5-min Rain = 0
KHA2 142208Z 12004KT 32/11 A3014 RMK A01 T03240109  RH  027%=      5-min Rain = 0
KHA2 142209Z 10007KT 33/11 A3014 RMK A01 T03250110  RH  027%=      5-min Rain = 0
KHA2 142210Z 10006KT 33/11 A3014 RMK A01 T03250110  RH  027%=      5-min Rain = 0
KHA2 142211Z 09006KT 32/11 A3014 RMK A01 T03240110  RH  027%=      5-min Rain = 0
KHA2 142212Z 07004KT 32/11 A3014 RMK A01 T03230109  RH  027%=      5-min Rain = 0
KHA2 142213Z 11004KT 32/11 A3014 RMK A01 T03230109  RH  027%=      5-min Rain = 0
KHA2 142214Z 11002KT 32/11 A3014 RMK A01 T03230109  RH  027%=      5-min Rain = 0
KHA2 142215Z 07001KT 32/11 A3014 RMK A01 T03230108  RH  027%=      5-min Rain = 0
KHA2 142216Z 29002KT 32/11 A3014 RMK A01 T03240108  RH  027%=      5-min Rain = 0
KHA2 142217Z 30005KT 33/11 A3014 RMK A01 T03260109  RH  026%=      5-min Rain = 0
KHA2 142218Z 32004KT 33/11 A3014 RMK A01 T03280108  RH  026%=      5-min Rain = 0
KHA2 142219Z 36002KT 33/11 A3014 RMK A01 T03280109  RH  026%=      5-min Rain = 0
KHA2 142220Z 33002KT 33/11 A3014 RMK A01 T03280108  RH  026%=      5-min Rain = 0
KHA2 142221Z 31003KT 33/11 A3014 RMK A01 T03280108  RH  026%=      5-min Rain = 0
KHA2 142222Z 03006KT 33/11 A3014 RMK A01 T03300111  RH  026%=      5-min Rain = 0
KHA2 142223Z 05005KT 33/11 A3014 RMK A01 T03300114  RH  027%=      5-min Rain = 0
KHA2 142224Z 02004KT 33/11 A3014 RMK A01 T03280114  RH  027%=      5-min Rain = 0
KHA2 142225Z 06008KT 33/11 A3014 RMK A01 T03270114  RH  027%=      5-min Rain = 0
KHA2 142226Z 07008KT 33/12 A3014 RMK A01 T03280115  RH  027%=      5-min Rain = 0
KHA2 142227Z 07007KT 33/12 A3014 RMK A01 T03280116  RH  027%=      5-min Rain = 0
KHA2 142228Z 07005KT 33/11 A3014 RMK A01 T03280113  RH  027%=      5-min Rain = 0
KHA2 142229Z 07006KT 33/11 A3014 RMK A01 T03260114  RH  027%=      5-min Rain = 0
KHA2 142230Z 06008KT 33/12 A3014 RMK A01 T03270115  RH  027%=      5-min Rain = 0
KHA2 142231Z 06008KT 33/11 A3013 RMK A01 T03280113  RH  027%=      5-min Rain = 0
KHA2 142232Z 06003KT 32/11 A3013 RMK A01 T03240111  RH  027%=      5-min Rain = 0
KHA2 142233Z 04006G13KT 32/11 A3013 RMK A01 T03240114  RH  028%=      5-min Rain = 0
KHA2 142234Z 04012KT 33/12 A3013 RMK A01 T03280116  RH  028%=      5-min Rain = 0
KHA2 142235Z 03008KT 33/11 A3013 RMK A01 T03260113  RH  027%=      5-min Rain = 0
KHA2 142236Z 03008KT 32/11 A3013 RMK A01 T03230113  RH  028%=      5-min Rain = 0
KHA2 142237Z 04007KT 32/11 A3013 RMK A01 T03230113  RH  028%=      5-min Rain = 0
KHA2 142238Z 04006KT 32/11 A3013 RMK A01 T03230113  RH  028%=      5-min Rain = 0
KHA2 142239Z 05005KT 32/11 A3013 RMK A01 T03230112  RH  027%=      5-min Rain = 0
KHA2 142240Z 07003KT 32/11 A3013 RMK A01 T03230112  RH  027%=      5-min Rain = 0
KHA2 142241Z 06006KT 32/11 A3013 RMK A01 T03230112  RH  028%=      5-min Rain = 0
KHA2 142242Z 07006KT 32/11 A3013 RMK A01 T03240112  RH  027%=      5-min Rain = 0
KHA2 142243Z 08007KT 33/11 A3013 RMK A01 T03250113  RH  027%=      5-min Rain = 0
KHA2 142244Z 06008KT 32/11 A3013 RMK A01 T03240114  RH  028%=      5-min Rain = 0
KHA2 142245Z 06007KT 33/11 A3013 RMK A01 T03260112  RH  027%=      5-min Rain = 0
KHA2 142246Z 07005KT 33/11 A3013 RMK A01 T03260112  RH  027%=      5-min Rain = 0
KHA2 142247Z 07005KT 33/11 A3013 RMK A01 T03270113  RH  027%=      5-min Rain = 0
KHA2 142248Z 10004KT 33/11 A3013 RMK A01 T03270112  RH  027%=      5-min Rain = 0
KHA2 142249Z 11003KT 33/11 A3013 RMK A01 T03260112  RH  027%=      5-min Rain = 0
KHA2 142250Z 10003KT 33/11 A3013 RMK A01 T03260111  RH  027%=      5-min Rain = 0
KHA2 142251Z 08002KT 33/11 A3013 RMK A01 T03260111  RH  027%=      5-min Rain = 0
KHA2 142252Z 07002KT 33/11 A3013 RMK A01 T03250112  RH  027%=      5-min Rain = 0
KHA2 142253Z 06003KT 33/11 A3013 RMK A01 T03260112  RH  027%=      5-min Rain = 0
KHA2 142254Z 03007G13KT 33/11 A3013 RMK A01 T03280114  RH  027%=      5-min Rain = 0
KHA2 142255Z 00006KT 33/11 A3013 RMK A01 T03310113  RH  026%=      5-min Rain = 0
KHA2 142256Z 01004KT 33/11 A3013 RMK A01 T03320113  RH  026%=      5-min Rain = 0
KHA2 142257Z 02005KT 33/11 A3013 RMK A01 T03320114  RH  026%=      5-min Rain = 0
KHA2 142258Z 01004KT 33/11 A3013 RMK A01 T03330114  RH  026%=      5-min Rain = 0
KHA2 142259Z 01006KT 33/11 A3013 RMK A01 T03340114  RH  026%=      5-min Rain = 0
KHA2 142300Z 02006KT 33/11 A3013 RMK A01 T03320113  RH  026%=      5-min Rain = 0
KHA2 142301Z 06004KT 33/11 A3013 RMK A01 T03290112  RH  027%=      5-min Rain = 0
KHA2 142302Z 06006KT 33/11 A3013 RMK A01 T03280114  RH  027%=      5-min Rain = 0
KHA2 142303Z 08007KT 33/11 A3013 RMK A01 T03280113  RH  027%=      5-min Rain = 0
KHA2 142304Z 07006KT 33/11 A3013 RMK A01 T03270114  RH  027%=      5-min Rain = 0
KHA2 142305Z 05004KT 33/11 A3013 RMK A01 T03270112  RH  027%=      5-min Rain = 0
KHA2 142306Z 07003KT 33/11 A3013 RMK A01 T03270112  RH  027%=      5-min Rain = 0
KHA2 142307Z 08001KT 33/11 A3013 RMK A01 T03280111  RH  027%=      5-min Rain = 0
KHA2 142308Z 35001KT 33/11 A3013 RMK A01 T03280111  RH  027%=      5-min Rain = 0
KHA2 142309Z 35003KT 33/11 A3013 RMK A01 T03290111  RH  026%=      5-min Rain = 0
KHA2 142310Z 00003KT 33/11 A3013 RMK A01 T03290111  RH  026%=      5-min Rain = 0
KHA2 142311Z 03004KT 33/11 A3013 RMK A01 T03290112  RH  027%=      5-min Rain = 0
KHA2 142312Z 02002KT 33/11 A3013 RMK A01 T03290111  RH  026%=      5-min Rain = 0
KHA2 142313Z 03006KT 33/11 A3013 RMK A01 T03280112  RH  027%=      5-min Rain = 0
KHA2 142314Z 03008KT 33/12 A3013 RMK A01 T03280115  RH  027%=      5-min Rain = 0
KHA2 142315Z 01006KT 33/11 A3013 RMK A01 T03290114  RH  027%=      5-min Rain = 0
KHA2 142316Z 01004KT 33/11 A3013 RMK A01 T03290111  RH  026%=      5-min Rain = 0
KHA2 142317Z 03003KT 33/11 A3013 RMK A01 T03280112  RH  027%=      5-min Rain = 0
KHA2 142318Z 09002KT 33/11 A3013 RMK A01 T03270112  RH  027%=      5-min Rain = 0
KHA2 142319Z 09005KT 33/11 A3013 RMK A01 T03280114  RH  027%=      5-min Rain = 0
KHA2 142320Z 08006KT 33/12 A3013 RMK A01 T03290115  RH  027%=      5-min Rain = 0
KHA2 142321Z 04005KT 33/11 A3013 RMK A01 T03280113  RH  027%=      5-min Rain = 0
KHA2 142322Z 05005KT 33/11 A3013 RMK A01 T03290113  RH  027%=      5-min Rain = 0
KHA2 142323Z 04008KT 33/11 A3013 RMK A01 T03290113  RH  027%=      5-min Rain = 0
KHA2 142324Z 04009KT 33/12 A3013 RMK A01 T03290115  RH  027%=      5-min Rain = 0
KHA2 142325Z 03008KT 33/11 A3013 RMK A01 T03280114  RH  027%=      5-min Rain = 0
KHA2 142326Z 04009KT 33/12 A3013 RMK A01 T03270115  RH  027%=      5-min Rain = 0
KHA2 142327Z 04010KT 33/11 A3013 RMK A01 T03270114  RH  027%=      5-min Rain = 0
KHA2 142328Z 04007KT 33/11 A3013 RMK A01 T03260112  RH  027%=      5-min Rain = 0
KHA2 142329Z 05008KT 32/11 A3013 RMK A01 T03240112  RH  027%=      5-min Rain = 0
KHA2 142330Z 04009KT 32/11 A3013 RMK A01 T03240113  RH  028%=      5-min Rain = 0
KHA2 142331Z 03009KT 33/11 A3013 RMK A01 T03250114  RH  027%=      5-min Rain = 0
KHA2 142332Z 04007KT 33/12 A3013 RMK A01 T03260115  RH  028%=      5-min Rain = 0
KHA2 142333Z 06006KT 33/11 A3013 RMK A01 T03270114  RH  027%=      5-min Rain = 0
KHA2 142334Z 05007KT 33/11 A3013 RMK A01 T03260113  RH  027%=      5-min Rain = 0
KHA2 142335Z 04008KT 33/11 A3013 RMK A01 T03260113  RH  027%=      5-min Rain = 0
KHA2 142336Z 04007KT 33/11 A3013 RMK A01 T03250113  RH  027%=      5-min Rain = 0
KHA2 142337Z 04007KT 32/11 A3013 RMK A01 T03240113  RH  028%=      5-min Rain = 0
KHA2 142338Z 08008KT 32/12 A3013 RMK A01 T03240115  RH  028%=      5-min Rain = 0
KHA2 142339Z 08010KT 33/12 A3013 RMK A01 T03260118  RH  028%=      5-min Rain = 0
KHA2 142340Z 10007KT 32/11 A3013 RMK A01 T03240113  RH  027%=      5-min Rain = 0
KHA2 142341Z 10005KT 32/11 A3013 RMK A01 T03220112  RH  028%=      5-min Rain = 0
KHA2 142342Z 08010KT 32/12 A3012 RMK A01 T03230115  RH  028%=      5-min Rain = 0
KHA2 142343Z 07007KT 33/12 A3013 RMK A01 T03250115  RH  028%=      5-min Rain = 0
KHA2 142344Z 08007KT 33/12 A3013 RMK A01 T03250115  RH  028%=      5-min Rain = 0
KHA2 142345Z 09007KT 33/12 A3013 RMK A01 T03250119  RH  028%=      5-min Rain = 0
KHA2 142346Z 06006KT 33/12 A3013 RMK A01 T03260116  RH  028%=      5-min Rain = 0
KHA2 142347Z 07008KT 33/12 A3012 RMK A01 T03270118  RH  028%=      5-min Rain = 0
KHA2 142348Z 07007KT 33/12 A3012 RMK A01 T03260115  RH  028%=      5-min Rain = 0
KHA2 142349Z 09005KT 33/12 A3012 RMK A01 T03250116  RH  028%=      5-min Rain = 0
KHA2 142350Z 08005KT 33/12 A3012 RMK A01 T03250120  RH  029%=      5-min Rain = 0
KHA2 142351Z 06004KT 33/12 A3012 RMK A01 T03250116  RH  028%=      5-min Rain = 0
KHA2 142352Z 06005KT 33/11 A3012 RMK A01 T03260114  RH  027%=      5-min Rain = 0
KHA2 142353Z 09007KT 32/11 A3012 RMK A01 T03240114  RH  028%=      5-min Rain = 0
KHA2 142354Z 11007KT 32/12 A3012 RMK A01 T03230116  RH  028%=      5-min Rain = 0
KHA2 142355Z 11006KT 32/11 A3012 RMK A01 T03210113  RH  028%=      5-min Rain = 0
KHA2 142356Z 10003KT 32/11 A3013 RMK A01 T03200112  RH  028%=      5-min Rain = 0
KHA2 142357Z 05005KT 32/11 A3013 RMK A01 T03190114  RH  028%=      5-min Rain = 0
KHA2 142358Z 05005KT 32/11 A3013 RMK A01 T03200113  RH  028%=      5-min Rain = 0
KHA2 142359Z 05008KT 32/11 A3013 RMK A01 T03210114  RH  028%=      5-min Rain = 0
KHA2 150000Z 05006KT 32/11 A3013 RMK A01 T03200113  RH  028%=      5-min Rain = 0
KHA2 150001Z 04004KT 32/11 A3013 RMK A01 T03190113  RH  028%=      5-min Rain = 0
KHA2 150002Z 06003KT 32/11 A3013 RMK A01 T03190112  RH  028%=      5-min Rain = 0
KHA2 150003Z 07005KT 32/11 A3013 RMK A01 T03200114  RH  028%=      5-min Rain = 0
KHA2 150004Z 07005KT 32/11 A3013 RMK A01 T03210113  RH  028%=      5-min Rain = 0
KHA2 150005Z 10001KT 32/11 A3013 RMK A01 T03210112  RH  028%=      5-min Rain = 0
KHA2 150006Z 06002KT 32/11 A3013 RMK A01 T03210112  RH  028%=      5-min Rain = 0
KHA2 150007Z 07009KT 32/12 A3013 RMK A01 T03210116  RH  028%=      5-min Rain = 0
KHA2 150008Z 06011KT 32/12 A3013 RMK A01 T03210117  RH  029%=      5-min Rain = 0
KHA2 150009Z 06009KT 32/12 A3013 RMK A01 T03190117  RH  029%=      5-min Rain = 0
KHA2 150010Z 07010KT 32/12 A3013 RMK A01 T03180117  RH  029%=      5-min Rain = 0
KHA2 150011Z 07010KT 32/12 A3013 RMK A01 T03180120  RH  030%=      5-min Rain = 0
KHA2 150012Z 07010KT 32/12 A3013 RMK A01 T03180120  RH  030%=      5-min Rain = 0
KHA2 150013Z 05011KT 32/12 A3013 RMK A01 T03180118  RH  029%=      5-min Rain = 0
KHA2 150014Z 06009KT 32/12 A3013 RMK A01 T03180117  RH  029%=      5-min Rain = 0
KHA2 150015Z 06008KT 32/12 A3013 RMK A01 T03170116  RH  029%=      5-min Rain = 0
KHA2 150016Z 09007KT 32/12 A3013 RMK A01 T03160120  RH  030%=      5-min Rain = 0
KHA2 150017Z 09007KT 32/12 A3013 RMK A01 T03160120  RH  030%=      5-min Rain = 0
KHA2 150018Z 09006KT 32/12 A3013 RMK A01 T03160120  RH  030%=      5-min Rain = 0
KHA2 150019Z 09005KT 32/12 A3013 RMK A01 T03160117  RH  030%=      5-min Rain = 0
KHA2 150020Z 08007KT 32/12 A3013 RMK A01 T03160118  RH  030%=      5-min Rain = 0
KHA2 150021Z 08007KT 32/12 A3013 RMK A01 T03170123  RH  031%=      5-min Rain = 0
KHA2 150022Z 09007KT 32/12 A3013 RMK A01 T03180123  RH  030%=      5-min Rain = 0
KHA2 150023Z 10005KT 32/12 A3013 RMK A01 T03180121  RH  030%=      5-min Rain = 0
KHA2 150024Z 09006KT 32/12 A3013 RMK A01 T03190120  RH  030%=      5-min Rain = 0
KHA2 150025Z 10005KT 32/12 A3013 RMK A01 T03190120  RH  030%=      5-min Rain = 0
KHA2 150026Z 09008KT 32/12 A3013 RMK A01 T03200118  RH  029%=      5-min Rain = 0
KHA2 150027Z 09010KT 32/12 A3013 RMK A01 T03190121  RH  030%=      5-min Rain = 0
KHA2 150028Z 08010KT 32/12 A3013 RMK A01 T03190119  RH  030%=      5-min Rain = 0
KHA2 150029Z 08009KT 32/12 A3013 RMK A01 T03180119  RH  030%=      5-min Rain = 0
KHA2 150030Z 10008KT 32/12 A3013 RMK A01 T03170118  RH  030%=      5-min Rain = 0
KHA2 150031Z 09010KT 32/12 A3013 RMK A01 T03160118  RH  030%=      5-min Rain = 0
KHA2 150032Z 08009KT 32/12 A3013 RMK A01 T03160119  RH  030%=      5-min Rain = 0
KHA2 150033Z 09009KT 32/12 A3013 RMK A01 T03160119  RH  030%=      5-min Rain = 0
KHA2 150034Z 09008KT 32/12 A3013 RMK A01 T03160121  RH  030%=      5-min Rain = 0
KHA2 150035Z 09008KT 32/12 A3013 RMK A01 T03160121  RH  030%=      5-min Rain = 0
KHA2 150036Z 10009KT 32/12 A3013 RMK A01 T03160119  RH  030%=      5-min Rain = 0
KHA2 150037Z 09008KT 32/12 A3013 RMK A01 T03150122  RH  031%=      5-min Rain = 0
KHA2 150038Z 08007KT 31/12 A3013 RMK A01 T03140122  RH  031%=      5-min Rain = 0
KHA2 150039Z 09009KT 31/12 A3013 RMK A01 T03130120  RH  031%=      5-min Rain = 0
KHA2 150040Z 09009KT 31/12 A3013 RMK A01 T03120118  RH  030%=      5-min Rain = 0
KHA2 150041Z 10008KT 31/12 A3013 RMK A01 T03130120  RH  031%=      5-min Rain = 0
KHA2 150042Z 10008KT 31/12 A3013 RMK A01 T03120117  RH  030%=      5-min Rain = 0
KHA2 150043Z 08009KT 31/12 A3013 RMK A01 T03130117  RH  030%=      5-min Rain = 0
KHA2 150044Z 08009KT 31/12 A3013 RMK A01 T03130119  RH  030%=      5-min Rain = 0
KHA2 150045Z 10009KT 31/12 A3013 RMK A01 T03130120  RH  031%=      5-min Rain = 0
KHA2 150046Z 10008KT 31/12 A3013 RMK A01 T03130117  RH  030%=      5-min Rain = 0
KHA2 150047Z 09006KT 31/12 A3013 RMK A01 T03120116  RH  030%=      5-min Rain = 0
KHA2 150048Z 08008KT 31/12 A3013 RMK A01 T03120118  RH  030%=      5-min Rain = 0
KHA2 150049Z 08008KT 31/12 A3013 RMK A01 T03110118  RH  031%=      5-min Rain = 0
KHA2 150050Z 08006KT 31/12 A3013 RMK A01 T03110120  RH  031%=      5-min Rain = 0
KHA2 150051Z 08008KT 31/12 A3013 RMK A01 T03100121  RH  031%=      5-min Rain = 0
KHA2 150052Z 09008KT 31/12 A3013 RMK A01 T03090119  RH  031%=      5-min Rain = 0
KHA2 150053Z 08007KT 31/12 A3013 RMK A01 T03090123  RH  032%=      5-min Rain = 0
KHA2 150054Z 08007KT 31/12 A3013 RMK A01 T03080120  RH  032%=      5-min Rain = 0
KHA2 150055Z 09007KT 31/12 A3014 RMK A01 T03080122  RH  032%=      5-min Rain = 0
KHA2 150056Z 09007KT 31/12 A3014 RMK A01 T03070121  RH  032%=      5-min Rain = 0
KHA2 150057Z 09007KT 31/12 A3014 RMK A01 T03070120  RH  032%=      5-min Rain = 0
KHA2 150058Z 09007KT 31/12 A3014 RMK A01 T03070120  RH  032%=      5-min Rain = 0
KHA2 150059Z 10007KT 31/12 A3014 RMK A01 T03060119  RH  032%=      5-min Rain = 0
KHA2 150100Z 10007KT 31/12 A3014 RMK A01 T03050119  RH  032%=      5-min Rain = 0
KHA2 150101Z 10006KT 31/12 A3014 RMK A01 T03050118  RH  032%=      5-min Rain = 0
KHA2 150102Z 09008KT 30/12 A3014 RMK A01 T03040118  RH  032%=      5-min Rain = 0
KHA2 150103Z 09009KT 30/12 A3014 RMK A01 T03040117  RH  032%=      5-min Rain = 0
KHA2 150104Z 09009KT 30/12 A3014 RMK A01 T03040117  RH  032%=      5-min Rain = 0
KHA2 150105Z 09008KT 30/12 A3014 RMK A01 T03030118  RH  032%=      5-min Rain = 0
KHA2 150106Z 09007KT 30/12 A3014 RMK A01 T03030119  RH  032%=      5-min Rain = 0
KHA2 150107Z 10007KT 30/12 A3014 RMK A01 T03020119  RH  032%=      5-min Rain = 0
KHA2 150108Z 09008KT 30/12 A3014 RMK A01 T03020119  RH  032%=      5-min Rain = 0
KHA2 150109Z 10008KT 30/12 A3014 RMK A01 T03010119  RH  033%=      5-min Rain = 0
KHA2 150110Z 10008KT 30/12 A3014 RMK A01 T03010117  RH  032%=      5-min Rain = 0
KHA2 150111Z 10007KT 30/12 A3014 RMK A01 T03010118  RH  032%=      5-min Rain = 0
KHA2 150112Z 10009KT 30/12 A3014 RMK A01 T03000117  RH  032%=      5-min Rain = 0
KHA2 150113Z 10009KT 30/12 A3014 RMK A01 T03000116  RH  032%=      5-min Rain = 0
KHA2 150114Z 09008KT 30/12 A3014 RMK A01 T03000118  RH  033%=      5-min Rain = 0
KHA2 150115Z 09008KT 30/12 A3014 RMK A01 T02990118  RH  033%=      5-min Rain = 0
KHA2 150116Z 10007KT 30/12 A3014 RMK A01 T02980118  RH  033%=      5-min Rain = 0
KHA2 150117Z 10008KT 30/12 A3014 RMK A01 T02970119  RH  033%=      5-min Rain = 0
KHA2 150118Z 10009KT 30/12 A3014 RMK A01 T02960118  RH  033%=      5-min Rain = 0
KHA2 150119Z 10009KT 30/12 A3014 RMK A01 T02960118  RH  033%=      5-min Rain = 0
KHA2 150120Z 10009KT 30/12 A3014 RMK A01 T02960117  RH  033%=      5-min Rain = 0
KHA2 150121Z 10009KT 30/12 A3014 RMK A01 T02960117  RH  033%=      5-min Rain = 0
KHA2 150122Z 10009KT 30/12 A3014 RMK A01 T02950116  RH  033%=      5-min Rain = 0
KHA2 150123Z 10008KT 30/12 A3014 RMK A01 T02950117  RH  033%=      5-min Rain = 0
KHA2 150124Z 10008KT 29/12 A3014 RMK A01 T02940116  RH  033%=      5-min Rain = 0
KHA2 150125Z 11008KT 29/12 A3014 RMK A01 T02940115  RH  033%=      5-min Rain = 0
KHA2 150126Z 11008KT 29/12 A3015 RMK A01 T02940115  RH  033%=      5-min Rain = 0
KHA2 150127Z 10009KT 29/12 A3015 RMK A01 T02930115  RH  033%=      5-min Rain = 0
KHA2 150128Z 11009KT 29/12 A3015 RMK A01 T02920115  RH  033%=      5-min Rain = 0
KHA2 150129Z 10009KT 29/12 A3015 RMK A01 T02920115  RH  034%=      5-min Rain = 0
KHA2 150130Z 10009KT 29/12 A3015 RMK A01 T02910115  RH  034%=      5-min Rain = 0
KHA2 150131Z 10008KT 29/12 A3015 RMK A01 T02910116  RH  034%=      5-min Rain = 0
KHA2 150132Z 10008KT 29/12 A3015 RMK A01 T02900115  RH  034%=      5-min Rain = 0
KHA2 150133Z 10008KT 29/12 A3015 RMK A01 T02900115  RH  034%=      5-min Rain = 0
KHA2 150134Z 10008KT 29/12 A3015 RMK A01 T02890115  RH  034%=      5-min Rain = 0
KHA2 150135Z 11008KT 29/12 A3015 RMK A01 T02880115  RH  034%=      5-min Rain = 0
KHA2 150136Z 11008KT 29/12 A3015 RMK A01 T02880115  RH  034%=      5-min Rain = 0
KHA2 150137Z 11008KT 29/12 A3015 RMK A01 T02870115  RH  034%=      5-min Rain = 0
KHA2 150138Z 11008KT 29/12 A3015 RMK A01 T02860115  RH  035%=      5-min Rain = 0
KHA2 150139Z 11008KT 29/12 A3015 RMK A01 T02860115  RH  035%=      5-min Rain = 0
KHA2 150140Z 10008KT 29/12 A3015 RMK A01 T02850116  RH  035%=      5-min Rain = 0
KHA2 150141Z 10008KT 29/12 A3015 RMK A01 T02850115  RH  035%=      5-min Rain = 0
KHA2 150142Z 10008KT 28/12 A3015 RMK A01 T02840116  RH  035%=      5-min Rain = 0
KHA2 150143Z 11008KT 28/12 A3015 RMK A01 T02840115  RH  035%=      5-min Rain = 0
KHA2 150144Z 11008KT 28/12 A3015 RMK A01 T02830115  RH  035%=      5-min Rain = 0
KHA2 150145Z 11008KT 28/11 A3015 RMK A01 T02820114  RH  035%=      5-min Rain = 0
KHA2 150146Z 11008KT 28/11 A3015 RMK A01 T02820114  RH  035%=      5-min Rain = 0
KHA2 150147Z 11008KT 28/11 A3015 RMK A01 T02810114  RH  035%=      5-min Rain = 0
KHA2 150148Z 11008KT 28/11 A3015 RMK A01 T02810114  RH  035%=      5-min Rain = 0
KHA2 150149Z 10008KT 28/11 A3015 RMK A01 T02810114  RH  036%=      5-min Rain = 0
KHA2 150150Z 11008KT 28/11 A3016 RMK A01 T02810114  RH  036%=      5-min Rain = 0
KHA2 150151Z 11008KT 28/11 A3016 RMK A01 T02810114  RH  036%=      5-min Rain = 0
KHA2 150152Z 11008KT 28/11 A3016 RMK A01 T02810114  RH  036%=      5-min Rain = 0
KHA2 150153Z 10008KT 28/12 A3016 RMK A01 T02810115  RH  036%=      5-min Rain = 0
KHA2 150154Z 10008KT 28/12 A3016 RMK A01 T02800115  RH  036%=      5-min Rain = 0
KHA2 150155Z 10008KT 28/12 A3016 RMK A01 T02800116  RH  036%=      5-min Rain = 0
KHA2 150156Z 10008KT 28/12 A3016 RMK A01 T02800116  RH  036%=      5-min Rain = 0
KHA2 150157Z 11009KT 28/12 A3016 RMK A01 T02790115  RH  036%=      5-min Rain = 0
KHA2 150158Z 11008KT 28/12 A3016 RMK A01 T02790115  RH  036%=      5-min Rain = 0
KHA2 150159Z 11008KT 28/11 A3016 RMK A01 T02790114  RH  036%=      5-min Rain = 0
KHA2 150200Z 11008KT 28/11 A3016 RMK A01 T02780113  RH  036%=      5-min Rain = 0
KHA2 150201Z 11008KT 28/11 A3016 RMK A01 T02770113  RH  036%=      5-min Rain = 0
KHA2 150202Z 11008KT 28/11 A3016 RMK A01 T02760112  RH  036%=      5-min Rain = 0
KHA2 150203Z 12008KT 28/11 A3016 RMK A01 T02760112  RH  036%=      5-min Rain = 0
KHA2 150204Z 12008KT 28/11 A3016 RMK A01 T02750112  RH  036%=      5-min Rain = 0
KHA2 150205Z 11008KT 28/11 A3016 RMK A01 T02750112  RH  036%=      5-min Rain = 0
KHA2 150206Z 11008KT 28/11 A3016 RMK A01 T02750112  RH  036%=      5-min Rain = 0
KHA2 150207Z 11008KT 27/11 A3016 RMK A01 T02740112  RH  036%=      5-min Rain = 0
KHA2 150208Z 11008KT 27/11 A3016 RMK A01 T02740112  RH  037%=      5-min Rain = 0
KHA2 150209Z 11008KT 27/11 A3016 RMK A01 T02740112  RH  037%=      5-min Rain = 0
KHA2 150210Z 11008KT 27/11 A3016 RMK A01 T02740112  RH  037%=      5-min Rain = 0
KHA2 150211Z 11008KT 27/11 A3016 RMK A01 T02730113  RH  037%=      5-min Rain = 0
KHA2 150212Z 11008KT 27/11 A3016 RMK A01 T02730112  RH  037%=      5-min Rain = 0
KHA2 150213Z 10008KT 27/11 A3016 RMK A01 T02720113  RH  037%=      5-min Rain = 0
KHA2 150214Z 10008KT 27/11 A3016 RMK A01 T02720114  RH  037%=      5-min Rain = 0
KHA2 150215Z 10008KT 27/11 A3016 RMK A01 T02720114  RH  037%=      5-min Rain = 0
KHA2 150216Z 10008KT 27/11 A3016 RMK A01 T02720114  RH  037%=      5-min Rain = 0
KHA2 150217Z 10008KT 27/12 A3016 RMK A01 T02720115  RH  037%=      5-min Rain = 0
KHA2 150218Z 10008KT 27/12 A3016 RMK A01 T02720115  RH  038%=      5-min Rain = 0
KHA2 150219Z 10008KT 27/12 A3016 RMK A01 T02720115  RH  038%=      5-min Rain = 0
KHA2 150220Z 11008KT 27/11 A3017 RMK A01 T02720114  RH  037%=      5-min Rain = 0
KHA2 150221Z 11008KT 27/11 A3017 RMK A01 T02720114  RH  037%=      5-min Rain = 0
KHA2 150222Z 11007KT 27/11 A3017 RMK A01 T02710113  RH  037%=      5-min Rain = 0
KHA2 150223Z 11008KT 27/11 A3017 RMK A01 T02700113  RH  037%=      5-min Rain = 0
KHA2 150224Z 11008KT 27/11 A3017 RMK A01 T02700113  RH  038%=      5-min Rain = 0
KHA2 150225Z 11008KT 27/11 A3017 RMK A01 T02690113  RH  038%=      5-min Rain = 0
KHA2 150226Z 11008KT 27/11 A3016 RMK A01 T02690113  RH  038%=      5-min Rain = 0
KHA2 150227Z 11009KT 27/11 A3016 RMK A01 T02680113  RH  038%=      5-min Rain = 0
KHA2 150228Z 11008KT 27/11 A3016 RMK A01 T02680113  RH  038%=      5-min Rain = 0
KHA2 150229Z 12008KT 27/11 A3017 RMK A01 T02670113  RH  038%=      5-min Rain = 0
KHA2 150230Z 11009KT 27/11 A3017 RMK A01 T02670113  RH  038%=      5-min Rain = 0
KHA2 150231Z 11009KT 27/11 A3017 RMK A01 T02670113  RH  038%=      5-min Rain = 0
KHA2 150232Z 11009KT 27/11 A3017 RMK A01 T02680114  RH  038%=      5-min Rain = 0
KHA2 150233Z 11009KT 27/11 A3017 RMK A01 T02680114  RH  038%=      5-min Rain = 0
KHA2 150234Z 11009KT 27/12 A3017 RMK A01 T02690115  RH  038%=      5-min Rain = 0
KHA2 150235Z 11009KT 27/12 A3017 RMK A01 T02690115  RH  038%=      5-min Rain = 0
KHA2 150236Z 12009KT 27/12 A3017 RMK A01 T02690115  RH  038%=      5-min Rain = 0
KHA2 150237Z 12009KT 27/12 A3017 RMK A01 T02690115  RH  038%=      5-min Rain = 0
KHA2 150238Z 12010KT 27/12 A3017 RMK A01 T02690116  RH  038%=      5-min Rain = 0
KHA2 150239Z 12009KT 27/12 A3017 RMK A01 T02680116  RH  039%=      5-min Rain = 0
KHA2 150240Z 13009KT 27/12 A3017 RMK A01 T02690116  RH  039%=      5-min Rain = 0
KHA2 150241Z 13009KT 27/12 A3017 RMK A01 T02690116  RH  039%=      5-min Rain = 0
KHA2 150242Z 13008KT 27/12 A3017 RMK A01 T02690117  RH  039%=      5-min Rain = 0
KHA2 150243Z 12008KT 27/12 A3017 RMK A01 T02690117  RH  039%=      5-min Rain = 0
KHA2 150244Z 12009KT 27/12 A3017 RMK A01 T02680117  RH  039%=      5-min Rain = 0
KHA2 150245Z 12009KT 27/12 A3017 RMK A01 T02670116  RH  039%=      5-min Rain = 0
KHA2 150246Z 13008KT 27/12 A3018 RMK A01 T02660116  RH  039%=      5-min Rain = 0
KHA2 150247Z 13008KT 27/12 A3018 RMK A01 T02650116  RH  039%=      5-min Rain = 0
KHA2 150248Z 13008KT 26/12 A3018 RMK A01 T02640116  RH  040%=      5-min Rain = 0
KHA2 150249Z 13008KT 26/12 A3018 RMK A01 T02630116  RH  040%=      5-min Rain = 0
KHA2 150250Z 13008KT 26/12 A3018 RMK A01 T02620116  RH  040%=      5-min Rain = 0
KHA2 150251Z 13008KT 26/12 A3018 RMK A01 T02610116  RH  040%=      5-min Rain = 0
KHA2 150252Z 13008KT 26/12 A3018 RMK A01 T02600115  RH  040%=      5-min Rain = 0
KHA2 150253Z 13009KT 26/12 A3018 RMK A01 T02590115  RH  041%=      5-min Rain = 0
KHA2 150254Z 13009KT 26/12 A3018 RMK A01 T02580115  RH  041%=      5-min Rain = 0
KHA2 150255Z 13009KT 26/12 A3018 RMK A01 T02580115  RH  041%=      5-min Rain = 0
KHA2 150256Z 13008KT 26/12 A3018 RMK A01 T02570115  RH  041%=      5-min Rain = 0
KHA2 150257Z 13008KT 26/12 A3018 RMK A01 T02570115  RH  041%=      5-min Rain = 0
KHA2 150258Z 13008KT 26/12 A3018 RMK A01 T02560115  RH  041%=      5-min Rain = 0
KHA2 150259Z 13008KT 26/12 A3018 RMK A01 T02560115  RH  041%=      5-min Rain = 0
KHA2 150300Z 13009KT 26/12 A3018 RMK A01 T02560115  RH  041%=      5-min Rain = 0
KHA2 150301Z 13008KT 26/12 A3018 RMK A01 T02550115  RH  042%=      5-min Rain = 0
KHA2 150302Z 13008KT 26/12 A3018 RMK A01 T02550115  RH  042%=      5-min Rain = 0
KHA2 150303Z 13008KT 26/12 A3018 RMK A01 T02550115  RH  042%=      5-min Rain = 0
KHA2 150304Z 13008KT 25/12 A3018 RMK A01 T02540115  RH  042%=      5-min Rain = 0
KHA2 150305Z 13008KT 25/11 A3018 RMK A01 T02540114  RH  042%=      5-min Rain = 0
KHA2 150306Z 13009KT 25/12 A3018 RMK A01 T02540115  RH  042%=      5-min Rain = 0
KHA2 150307Z 13009KT 25/12 A3018 RMK A01 T02540115  RH  042%=      5-min Rain = 0
KHA2 150308Z 12008KT 25/12 A3018 RMK A01 T02540115  RH  042%=      5-min Rain = 0
KHA2 150309Z 13008KT 25/12 A3018 RMK A01 T02540115  RH  042%=      5-min Rain = 0
KHA2 150310Z 13008KT 25/12 A3018 RMK A01 T02540115  RH  042%=      5-min Rain = 0
KHA2 150311Z 13008KT 25/11 A3018 RMK A01 T02540114  RH  042%=      5-min Rain = 0
KHA2 150312Z 13008KT 25/11 A3018 RMK A01 T02540114  RH  042%=      5-min Rain = 0
KHA2 150313Z 13008KT 25/11 A3018 RMK A01 T02540114  RH  042%=      5-min Rain = 0
KHA2 150314Z 13008KT 25/11 A3018 RMK A01 T02540114  RH  042%=      5-min Rain = 0
KHA2 150315Z 12008KT 25/11 A3018 RMK A01 T02540114  RH  042%=      5-min Rain = 0
KHA2 150316Z 12008KT 25/12 A3018 RMK A01 T02540115  RH  042%=      5-min Rain = 0
KHA2 150317Z 12008KT 25/11 A3018 RMK A01 T02540114  RH  042%=      5-min Rain = 0
KHA2 150318Z 12008KT 25/11 A3019 RMK A01 T02540114  RH  042%=      5-min Rain = 0
KHA2 150319Z 13007KT 26/12 A3019 RMK A01 T02550115  RH  042%=      5-min Rain = 0
KHA2 150320Z 13008KT 26/12 A3019 RMK A01 T02550115  RH  042%=      5-min Rain = 0
KHA2 150321Z 13008KT 26/12 A3019 RMK A01 T02550115  RH  042%=      5-min Rain = 0
KHA2 150322Z 14008KT 26/12 A3019 RMK A01 T02550115  RH  042%=      5-min Rain = 0
KHA2 150323Z 14007KT 26/12 A3019 RMK A01 T02550115  RH  042%=      5-min Rain = 0
KHA2 150324Z 14007KT 25/12 A3019 RMK A01 T02540115  RH  042%=      5-min Rain = 0
KHA2 150325Z 14007KT 25/12 A3019 RMK A01 T02530115  RH  042%=      5-min Rain = 0
KHA2 150326Z 13008KT 25/12 A3019 RMK A01 T02520115  RH  042%=      5-min Rain = 0
KHA2 150327Z 14007KT 25/12 A3019 RMK A01 T02510115  RH  042%=      5-min Rain = 0
KHA2 150328Z 14007KT 25/12 A3019 RMK A01 T02510115  RH  043%=      5-min Rain = 0
KHA2 150329Z 14007KT 25/12 A3019 RMK A01 T02500115  RH  043%=      5-min Rain = 0
KHA2 150330Z 14007KT 25/12 A3019 RMK A01 T02490115  RH  043%=      5-min Rain = 0
KHA2 150331Z 14007KT 25/11 A3019 RMK A01 T02480114  RH  043%=      5-min Rain = 0
KHA2 150332Z 14007KT 25/12 A3019 RMK A01 T02480115  RH  043%=      5-min Rain = 0
KHA2 150333Z 14007KT 25/11 A3019 RMK A01 T02470114  RH  043%=      5-min Rain = 0
KHA2 150334Z 14007KT 25/12 A3019 RMK A01 T02470115  RH  044%=      5-min Rain = 0
KHA2 150335Z 13007KT 25/12 A3019 RMK A01 T02460115  RH  044%=      5-min Rain = 0
KHA2 150336Z 13007KT 25/12 A3019 RMK A01 T02460115  RH  044%=      5-min Rain = 0
KHA2 150337Z 13007KT 25/12 A3019 RMK A01 T02460115  RH  044%=      5-min Rain = 0
KHA2 150338Z 13007KT 25/11 A3019 RMK A01 T02450114  RH  044%=      5-min Rain = 0
KHA2 150339Z 13007KT 25/12 A3019 RMK A01 T02450115  RH  044%=      5-min Rain = 0
KHA2 150340Z 13006KT 25/12 A302 RMK A01 T02450115  RH  044%=      5-min Rain = 0
KHA2 150341Z 13007KT 25/12 A302 RMK A01 T02450115  RH  044%=      5-min Rain = 0
KHA2 150342Z 13007KT 25/12 A302 RMK A01 T02450115  RH  044%=      5-min Rain = 0
KHA2 150343Z 13007KT 24/12 A302 RMK A01 T02440115  RH  044%=      5-min Rain = 0
KHA2 150344Z 13007KT 24/12 A302 RMK A01 T02440115  RH  044%=      5-min Rain = 0
KHA2 150345Z 13007KT 24/12 A302 RMK A01 T02430115  RH  045%=      5-min Rain = 0
KHA2 150346Z 13007KT 24/12 A302 RMK A01 T02430115  RH  045%=      5-min Rain = 0
KHA2 150347Z 13007KT 24/12 A302 RMK A01 T02430115  RH  045%=      5-min Rain = 0
KHA2 150348Z 13006KT 24/12 A302 RMK A01 T02430115  RH  045%=      5-min Rain = 0
KHA2 150349Z 13006KT 24/12 A302 RMK A01 T02430115  RH  045%=      5-min Rain = 0
KHA2 150350Z 13006KT 24/12 A302 RMK A01 T02430115  RH  045%=      5-min Rain = 0
KHA2 150351Z 13006KT 24/12 A302 RMK A01 T02420115  RH  045%=      5-min Rain = 0
KHA2 150352Z 12006KT 24/12 A302 RMK A01 T02430115  RH  045%=      5-min Rain = 0
KHA2 150353Z 12006KT 24/12 A302 RMK A01 T02430116  RH  045%=      5-min Rain = 0
KHA2 150354Z 12007KT 24/12 A302 RMK A01 T02430116  RH  045%=      5-min Rain = 0
KHA2 150355Z 12007KT 24/12 A302 RMK A01 T02420116  RH  045%=      5-min Rain = 0
KHA2 150356Z 12007KT 24/12 A302 RMK A01 T02430116  RH  045%=      5-min Rain = 0
KHA2 150357Z 13007KT 24/12 A302 RMK A01 T02440117  RH  045%=      5-min Rain = 0
KHA2 150358Z 13007KT 25/12 A302 RMK A01 T02450117  RH  045%=      5-min Rain = 0
KHA2 150359Z 13007KT 25/12 A302 RMK A01 T02460117  RH  044%=      5-min Rain = 0
KHA2 150400Z 13007KT 25/12 A302 RMK A01 T02460117  RH  044%=      5-min Rain = 0
KHA2 150401Z 13006KT 25/12 A302 RMK A01 T02460117  RH  044%=      5-min Rain = 0
KHA2 150402Z 13006KT 25/12 A302 RMK A01 T02460117  RH  044%=      5-min Rain = 0
KHA2 150403Z 13007KT 25/12 A3021 RMK A01 T02450117  RH  044%=      5-min Rain = 0
KHA2 150404Z 12007KT 25/12 A3021 RMK A01 T02450117  RH  045%=      5-min Rain = 0
KHA2 150405Z 13007KT 25/12 A3021 RMK A01 T02450117  RH  045%=      5-min Rain = 0
KHA2 150406Z 13006KT 25/12 A3021 RMK A01 T02450117  RH  045%=      5-min Rain = 0
KHA2 150407Z 13007KT 25/12 A3021 RMK A01 T02450117  RH  045%=      5-min Rain = 0
KHA2 150408Z 13007KT 25/12 A3021 RMK A01 T02450117  RH  045%=      5-min Rain = 0
KHA2 150409Z 13007KT 25/12 A3021 RMK A01 T02450117  RH  045%=      5-min Rain = 0
KHA2 150410Z 13007KT 24/12 A3021 RMK A01 T02440117  RH  045%=      5-min Rain = 0
KHA2 150411Z 12007KT 24/12 A3021 RMK A01 T02440117  RH  045%=      5-min Rain = 0
KHA2 150412Z 12007KT 24/12 A3021 RMK A01 T02440117  RH  045%=      5-min Rain = 0
KHA2 150413Z 12008KT 25/12 A3021 RMK A01 T02450118  RH  045%=      5-min Rain = 0
KHA2 150414Z 12008KT 25/12 A3021 RMK A01 T02470119  RH  045%=      5-min Rain = 0
KHA2 150415Z 12008KT 25/12 A3021 RMK A01 T02480120  RH  045%=      5-min Rain = 0
KHA2 150416Z 12008KT 25/12 A3021 RMK A01 T02490120  RH  044%=      5-min Rain = 0
KHA2 150417Z 13008KT 25/12 A3021 RMK A01 T02500121  RH  044%=      5-min Rain = 0
KHA2 150418Z 12010KT 25/12 A3021 RMK A01 T02510121  RH  044%=      5-min Rain = 0
KHA2 150419Z 13009KT 25/12 A3021 RMK A01 T02520122  RH  044%=      5-min Rain = 0
KHA2 150420Z 12009KT 25/12 A3021 RMK A01 T02530123  RH  044%=      5-min Rain = 0
KHA2 150421Z 12009KT 25/12 A3021 RMK A01 T02530123  RH  044%=      5-min Rain = 0
KHA2 150422Z 13009KT 25/12 A3021 RMK A01 T02540123  RH  044%=      5-min Rain = 0
KHA2 150423Z 13009KT 25/12 A3021 RMK A01 T02540124  RH  044%=      5-min Rain = 0
KHA2 150424Z 13009KT 25/13 A3021 RMK A01 T02540126  RH  045%=      5-min Rain = 0
KHA2 150425Z 13010KT 25/13 A3021 RMK A01 T02540126  RH  045%=      5-min Rain = 0
KHA2 150426Z 13009KT 25/13 A3021 RMK A01 T02540127  RH  045%=      5-min Rain = 0
KHA2 150427Z 13010KT 25/13 A3021 RMK A01 T02540127  RH  045%=      5-min Rain = 0
KHA2 150428Z 13009KT 26/13 A3021 RMK A01 T02550128  RH  045%=      5-min Rain = 0
KHA2 150429Z 13009KT 26/13 A3021 RMK A01 T02550129  RH  046%=      5-min Rain = 0
KHA2 150430Z 13009KT 26/13 A3021 RMK A01 T02550129  RH  046%=      5-min Rain = 0
KHA2 150431Z 13009KT 25/13 A3021 RMK A01 T02540130  RH  046%=      5-min Rain = 0
KHA2 150432Z 13010KT 25/13 A3021 RMK A01 T02540130  RH  046%=      5-min Rain = 0
KHA2 150433Z 13010KT 25/13 A3021 RMK A01 T02540131  RH  046%=      5-min Rain = 0
KHA2 150434Z 13009KT 25/13 A3021 RMK A01 T02540131  RH  046%=      5-min Rain = 0
KHA2 150435Z 13009KT 25/13 A3021 RMK A01 T02540131  RH  046%=      5-min Rain = 0
KHA2 150436Z 13009KT 25/13 A3021 RMK A01 T02540132  RH  047%=      5-min Rain = 0
KHA2 150437Z 13009KT 25/13 A3021 RMK A01 T02540133  RH  047%=      5-min Rain = 0
KHA2 150438Z 13010KT 25/13 A3021 RMK A01 T02540133  RH  047%=      5-min Rain = 0
KHA2 150439Z 13009KT 25/13 A3021 RMK A01 T02540133  RH  047%=      5-min Rain = 0
KHA2 150440Z 13009KT 25/13 A3021 RMK A01 T02540134  RH  047%=      5-min Rain = 0
KHA2 150441Z 13009KT 25/14 A3021 RMK A01 T02540135  RH  048%=      5-min Rain = 0
KHA2 150442Z 13009KT 25/14 A3021 RMK A01 T02530135  RH  048%=      5-min Rain = 0
KHA2 150443Z 12009KT 25/14 A3021 RMK A01 T02530136  RH  048%=      5-min Rain = 0
KHA2 150444Z 13009KT 25/14 A3021 RMK A01 T02530136  RH  048%=      5-min Rain = 0
KHA2 150445Z 12009KT 25/14 A3021 RMK A01 T02530136  RH  048%=      5-min Rain = 0
KHA2 150446Z 12010KT 25/14 A3021 RMK A01 T02530137  RH  049%=      5-min Rain = 0
KHA2 150447Z 13010KT 25/14 A3021 RMK A01 T02530138  RH  049%=      5-min Rain = 0
KHA2 150448Z 13010KT 25/14 A3021 RMK A01 T02530138  RH  049%=      5-min Rain = 0
KHA2 150449Z 12010KT 25/14 A3021 RMK A01 T02530139  RH  049%=      5-min Rain = 0
KHA2 150450Z 13009KT 25/14 A3021 RMK A01 T02530139  RH  049%=      5-min Rain = 0
KHA2 150451Z 13010KT 25/14 A3021 RMK A01 T02530139  RH  049%=      5-min Rain = 0
KHA2 150452Z 13009KT 25/14 A3021 RMK A01 T02530140  RH  050%=      5-min Rain = 0
KHA2 150453Z 13009KT 25/14 A3021 RMK A01 T02530141  RH  050%=      5-min Rain = 0
KHA2 150454Z 13010KT 25/14 A3021 RMK A01 T02520141  RH  050%=      5-min Rain = 0
KHA2 150455Z 13010KT 25/14 A3021 RMK A01 T02520142  RH  050%=      5-min Rain = 0
KHA2 150456Z 13009KT 25/14 A3021 RMK A01 T02520142  RH  050%=      5-min Rain = 0
KHA2 150457Z 13009KT 25/14 A3021 RMK A01 T02520142  RH  050%=      5-min Rain = 0
KHA2 150458Z 13009KT 25/14 A3021 RMK A01 T02520142  RH  051%=      5-min Rain = 0
KHA2 150459Z 13009KT 25/14 A3021 RMK A01 T02520143  RH  051%=      5-min Rain = 0

Page generated in 0.1208 seconds.